<?xml version="1.0" encoding="UTF-8" standalone="no" ?>
<gpx xmlns="http://www.topografix.com/GPX/1/1" xmlns:xsi="http://www.w3.org/2001/XMLSchema-instance" xsi:schemaLocation="http://www.topografix.com/GPX/1/1 http://www.topografix.com/GPX/1/1/gpx.xsd" version="1.1" creator="VisuGPX - https://www.visugpx.com">
  <metadata>
    <name>Le Bessat</name>
    <desc><![CDATA[Parcours en forêt sur les pistes forestières autour du Bessat et de la croix de Chaubouret]]></desc>
  </metadata>
  <trk>
    <name><![CDATA[CACHE 04 CHAUBOURET 08072013]]></name>
    <trkseg>
      <trkpt lat="45.36824" lon="4.52778">
        <ele>1187.85</ele>
        <time>2013-07-08T06:29:49Z</time>
      </trkpt>
      <trkpt lat="45.36825" lon="4.52783">
        <ele>1191.69</ele>
        <time>2013-07-08T06:29:56Z</time>
      </trkpt>
      <trkpt lat="45.36825" lon="4.52784">
        <ele>1191.69</ele>
        <time>2013-07-08T06:29:57Z</time>
      </trkpt>
      <trkpt lat="45.36825" lon="4.52785">
        <ele>1195.54</ele>
        <time>2013-07-08T06:30:04Z</time>
      </trkpt>
      <trkpt lat="45.36825" lon="4.52785">
        <ele>1196.5</ele>
        <time>2013-07-08T06:30:06Z</time>
      </trkpt>
      <trkpt lat="45.36827" lon="4.52787">
        <ele>1199.38</ele>
        <time>2013-07-08T06:30:24Z</time>
      </trkpt>
      <trkpt lat="45.36825" lon="4.52788">
        <ele>1200.34</ele>
        <time>2013-07-08T06:30:56Z</time>
      </trkpt>
      <trkpt lat="45.36828" lon="4.52786">
        <ele>1200.34</ele>
        <time>2013-07-08T06:31:24Z</time>
      </trkpt>
      <trkpt lat="45.36825" lon="4.52785">
        <ele>1200.82</ele>
        <time>2013-07-08T06:31:53Z</time>
      </trkpt>
      <trkpt lat="45.36824" lon="4.52785">
        <ele>1201.3</ele>
        <time>2013-07-08T06:32:11Z</time>
      </trkpt>
      <trkpt lat="45.36822" lon="4.52783">
        <ele>1201.3</ele>
        <time>2013-07-08T06:32:35Z</time>
      </trkpt>
      <trkpt lat="45.36822" lon="4.52788">
        <ele>1201.3</ele>
        <time>2013-07-08T06:32:44Z</time>
      </trkpt>
      <trkpt lat="45.36815" lon="4.52789">
        <ele>1201.79</ele>
        <time>2013-07-08T06:32:50Z</time>
      </trkpt>
      <trkpt lat="45.36808" lon="4.52802">
        <ele>1201.79</ele>
        <time>2013-07-08T06:33:07Z</time>
      </trkpt>
      <trkpt lat="45.36806" lon="4.52801">
        <ele>1201.79</ele>
        <time>2013-07-08T06:33:27Z</time>
      </trkpt>
      <trkpt lat="45.36783" lon="4.5279">
        <ele>1201.79</ele>
        <time>2013-07-08T06:33:49Z</time>
      </trkpt>
      <trkpt lat="45.36778" lon="4.5279">
        <ele>1201.79</ele>
        <time>2013-07-08T06:34:05Z</time>
      </trkpt>
      <trkpt lat="45.36775" lon="4.52789">
        <ele>1201.79</ele>
        <time>2013-07-08T06:34:08Z</time>
      </trkpt>
      <trkpt lat="45.36773" lon="4.52791">
        <ele>1201.79</ele>
        <time>2013-07-08T06:34:11Z</time>
      </trkpt>
      <trkpt lat="45.36757" lon="4.52784">
        <ele>1202.27</ele>
        <time>2013-07-08T06:34:30Z</time>
      </trkpt>
      <trkpt lat="45.36737" lon="4.52776">
        <ele>1203.71</ele>
        <time>2013-07-08T06:34:49Z</time>
      </trkpt>
      <trkpt lat="45.36723" lon="4.52768">
        <ele>1204.67</ele>
        <time>2013-07-08T06:35:04Z</time>
      </trkpt>
      <trkpt lat="45.36706" lon="4.52758">
        <ele>1206.11</ele>
        <time>2013-07-08T06:35:22Z</time>
      </trkpt>
      <trkpt lat="45.36704" lon="4.52754">
        <ele>1206.11</ele>
        <time>2013-07-08T06:35:48Z</time>
      </trkpt>
      <trkpt lat="45.36688" lon="4.52748">
        <ele>1207.07</ele>
        <time>2013-07-08T06:36:03Z</time>
      </trkpt>
      <trkpt lat="45.36669" lon="4.52738">
        <ele>1208.03</ele>
        <time>2013-07-08T06:36:20Z</time>
      </trkpt>
      <trkpt lat="45.36668" lon="4.52737">
        <ele>1208.51</ele>
        <time>2013-07-08T06:36:23Z</time>
      </trkpt>
      <trkpt lat="45.36649" lon="4.52726">
        <ele>1210.44</ele>
        <time>2013-07-08T06:36:42Z</time>
      </trkpt>
      <trkpt lat="45.36641" lon="4.52724">
        <ele>1211.4</ele>
        <time>2013-07-08T06:36:49Z</time>
      </trkpt>
      <trkpt lat="45.36621" lon="4.52714">
        <ele>1213.32</ele>
        <time>2013-07-08T06:37:10Z</time>
      </trkpt>
      <trkpt lat="45.36601" lon="4.52706">
        <ele>1215.24</ele>
        <time>2013-07-08T06:37:29Z</time>
      </trkpt>
      <trkpt lat="45.36586" lon="4.52697">
        <ele>1217.65</ele>
        <time>2013-07-08T06:37:46Z</time>
      </trkpt>
      <trkpt lat="45.36574" lon="4.52688">
        <ele>1220.05</ele>
        <time>2013-07-08T06:38:01Z</time>
      </trkpt>
      <trkpt lat="45.36573" lon="4.52687">
        <ele>1220.53</ele>
        <time>2013-07-08T06:38:02Z</time>
      </trkpt>
      <trkpt lat="45.36559" lon="4.52673">
        <ele>1222.45</ele>
        <time>2013-07-08T06:38:19Z</time>
      </trkpt>
      <trkpt lat="45.36547" lon="4.52662">
        <ele>1223.9</ele>
        <time>2013-07-08T06:38:34Z</time>
      </trkpt>
      <trkpt lat="45.36531" lon="4.52643">
        <ele>1226.3</ele>
        <time>2013-07-08T06:38:52Z</time>
      </trkpt>
      <trkpt lat="45.36517" lon="4.52632">
        <ele>1228.22</ele>
        <time>2013-07-08T06:39:07Z</time>
      </trkpt>
      <trkpt lat="45.36501" lon="4.52626">
        <ele>1229.66</ele>
        <time>2013-07-08T06:39:22Z</time>
      </trkpt>
      <trkpt lat="45.36493" lon="4.52626">
        <ele>1230.14</ele>
        <time>2013-07-08T06:39:30Z</time>
      </trkpt>
      <trkpt lat="45.36493" lon="4.52624">
        <ele>1230.62</ele>
        <time>2013-07-08T06:39:47Z</time>
      </trkpt>
      <trkpt lat="45.36492" lon="4.52621">
        <ele>1230.62</ele>
        <time>2013-07-08T06:40:17Z</time>
      </trkpt>
      <trkpt lat="45.36488" lon="4.52624">
        <ele>1231.11</ele>
        <time>2013-07-08T06:40:33Z</time>
      </trkpt>
      <trkpt lat="45.36487" lon="4.52626">
        <ele>1231.11</ele>
        <time>2013-07-08T06:40:36Z</time>
      </trkpt>
      <trkpt lat="45.36485" lon="4.52632">
        <ele>1230.62</ele>
        <time>2013-07-08T06:40:39Z</time>
      </trkpt>
      <trkpt lat="45.3647" lon="4.52642">
        <ele>1231.11</ele>
        <time>2013-07-08T06:40:56Z</time>
      </trkpt>
      <trkpt lat="45.3645" lon="4.52633">
        <ele>1231.59</ele>
        <time>2013-07-08T06:41:14Z</time>
      </trkpt>
      <trkpt lat="45.36431" lon="4.52624">
        <ele>1230.62</ele>
        <time>2013-07-08T06:41:29Z</time>
      </trkpt>
      <trkpt lat="45.36411" lon="4.5262">
        <ele>1229.66</ele>
        <time>2013-07-08T06:41:45Z</time>
      </trkpt>
      <trkpt lat="45.36389" lon="4.52611">
        <ele>1227.74</ele>
        <time>2013-07-08T06:42:02Z</time>
      </trkpt>
      <trkpt lat="45.36373" lon="4.526">
        <ele>1226.3</ele>
        <time>2013-07-08T06:42:18Z</time>
      </trkpt>
      <trkpt lat="45.3636" lon="4.52576">
        <ele>1224.38</ele>
        <time>2013-07-08T06:42:36Z</time>
      </trkpt>
      <trkpt lat="45.36356" lon="4.52562">
        <ele>1223.42</ele>
        <time>2013-07-08T06:42:43Z</time>
      </trkpt>
      <trkpt lat="45.36341" lon="4.52536">
        <ele>1221.97</ele>
        <time>2013-07-08T06:43:02Z</time>
      </trkpt>
      <trkpt lat="45.36327" lon="4.52514">
        <ele>1221.49</ele>
        <time>2013-07-08T06:43:18Z</time>
      </trkpt>
      <trkpt lat="45.36313" lon="4.52494">
        <ele>1221.01</ele>
        <time>2013-07-08T06:43:35Z</time>
      </trkpt>
      <trkpt lat="45.36297" lon="4.52471">
        <ele>1220.05</ele>
        <time>2013-07-08T06:43:54Z</time>
      </trkpt>
      <trkpt lat="45.36284" lon="4.52451">
        <ele>1219.57</ele>
        <time>2013-07-08T06:44:10Z</time>
      </trkpt>
      <trkpt lat="45.3628" lon="4.52445">
        <ele>1219.09</ele>
        <time>2013-07-08T06:44:15Z</time>
      </trkpt>
      <trkpt lat="45.36264" lon="4.52415">
        <ele>1217.65</ele>
        <time>2013-07-08T06:44:34Z</time>
      </trkpt>
      <trkpt lat="45.36258" lon="4.52406">
        <ele>1217.17</ele>
        <time>2013-07-08T06:44:49Z</time>
      </trkpt>
      <trkpt lat="45.36244" lon="4.52404">
        <ele>1217.17</ele>
        <time>2013-07-08T06:45:03Z</time>
      </trkpt>
      <trkpt lat="45.36228" lon="4.524">
        <ele>1218.13</ele>
        <time>2013-07-08T06:45:17Z</time>
      </trkpt>
      <trkpt lat="45.36207" lon="4.52398">
        <ele>1219.09</ele>
        <time>2013-07-08T06:45:34Z</time>
      </trkpt>
      <trkpt lat="45.36206" lon="4.52397">
        <ele>1219.09</ele>
        <time>2013-07-08T06:45:35Z</time>
      </trkpt>
      <trkpt lat="45.36186" lon="4.52398">
        <ele>1219.57</ele>
        <time>2013-07-08T06:45:52Z</time>
      </trkpt>
      <trkpt lat="45.36165" lon="4.52389">
        <ele>1220.05</ele>
        <time>2013-07-08T06:46:08Z</time>
      </trkpt>
      <trkpt lat="45.36146" lon="4.52381">
        <ele>1219.09</ele>
        <time>2013-07-08T06:46:24Z</time>
      </trkpt>
      <trkpt lat="45.36126" lon="4.52369">
        <ele>1218.61</ele>
        <time>2013-07-08T06:46:40Z</time>
      </trkpt>
      <trkpt lat="45.36106" lon="4.52354">
        <ele>1218.13</ele>
        <time>2013-07-08T06:46:58Z</time>
      </trkpt>
      <trkpt lat="45.3609" lon="4.52341">
        <ele>1217.65</ele>
        <time>2013-07-08T06:47:17Z</time>
      </trkpt>
      <trkpt lat="45.36092" lon="4.52342">
        <ele>1217.65</ele>
        <time>2013-07-08T06:47:46Z</time>
      </trkpt>
      <trkpt lat="45.36077" lon="4.52343">
        <ele>1217.65</ele>
        <time>2013-07-08T06:48:14Z</time>
      </trkpt>
      <trkpt lat="45.36057" lon="4.52331">
        <ele>1217.17</ele>
        <time>2013-07-08T06:48:32Z</time>
      </trkpt>
      <trkpt lat="45.36053" lon="4.52331">
        <ele>1217.65</ele>
        <time>2013-07-08T06:48:36Z</time>
      </trkpt>
      <trkpt lat="45.36033" lon="4.52328">
        <ele>1217.65</ele>
        <time>2013-07-08T06:48:51Z</time>
      </trkpt>
      <trkpt lat="45.36011" lon="4.5232">
        <ele>1217.17</ele>
        <time>2013-07-08T06:49:08Z</time>
      </trkpt>
      <trkpt lat="45.35992" lon="4.52313">
        <ele>1217.17</ele>
        <time>2013-07-08T06:49:24Z</time>
      </trkpt>
      <trkpt lat="45.35969" lon="4.523">
        <ele>1217.17</ele>
        <time>2013-07-08T06:49:42Z</time>
      </trkpt>
      <trkpt lat="45.35949" lon="4.52292">
        <ele>1217.17</ele>
        <time>2013-07-08T06:49:57Z</time>
      </trkpt>
      <trkpt lat="45.35928" lon="4.52281">
        <ele>1217.65</ele>
        <time>2013-07-08T06:50:15Z</time>
      </trkpt>
      <trkpt lat="45.35905" lon="4.52268">
        <ele>1218.13</ele>
        <time>2013-07-08T06:50:34Z</time>
      </trkpt>
      <trkpt lat="45.3588" lon="4.5225">
        <ele>1217.65</ele>
        <time>2013-07-08T06:50:55Z</time>
      </trkpt>
      <trkpt lat="45.35864" lon="4.52242">
        <ele>1218.13</ele>
        <time>2013-07-08T06:51:09Z</time>
      </trkpt>
      <trkpt lat="45.3584" lon="4.52225">
        <ele>1218.61</ele>
        <time>2013-07-08T06:51:31Z</time>
      </trkpt>
      <trkpt lat="45.35834" lon="4.52219">
        <ele>1219.09</ele>
        <time>2013-07-08T06:51:38Z</time>
      </trkpt>
      <trkpt lat="45.3582" lon="4.52196">
        <ele>1219.57</ele>
        <time>2013-07-08T06:51:55Z</time>
      </trkpt>
      <trkpt lat="45.35819" lon="4.52195">
        <ele>1219.57</ele>
        <time>2013-07-08T06:51:57Z</time>
      </trkpt>
      <trkpt lat="45.35815" lon="4.52166">
        <ele>1221.49</ele>
        <time>2013-07-08T06:52:17Z</time>
      </trkpt>
      <trkpt lat="45.35812" lon="4.52143">
        <ele>1221.49</ele>
        <time>2013-07-08T06:52:32Z</time>
      </trkpt>
      <trkpt lat="45.35807" lon="4.52113">
        <ele>1221.97</ele>
        <time>2013-07-08T06:52:49Z</time>
      </trkpt>
      <trkpt lat="45.35807" lon="4.52081">
        <ele>1221.01</ele>
        <time>2013-07-08T06:53:07Z</time>
      </trkpt>
      <trkpt lat="45.35803" lon="4.52051">
        <ele>1220.53</ele>
        <time>2013-07-08T06:53:25Z</time>
      </trkpt>
      <trkpt lat="45.35801" lon="4.52041">
        <ele>1220.53</ele>
        <time>2013-07-08T06:53:39Z</time>
      </trkpt>
      <trkpt lat="45.35795" lon="4.52019">
        <ele>1219.57</ele>
        <time>2013-07-08T06:54:01Z</time>
      </trkpt>
      <trkpt lat="45.3579" lon="4.5199">
        <ele>1219.09</ele>
        <time>2013-07-08T06:54:18Z</time>
      </trkpt>
      <trkpt lat="45.35785" lon="4.51978">
        <ele>1219.09</ele>
        <time>2013-07-08T06:54:25Z</time>
      </trkpt>
      <trkpt lat="45.35773" lon="4.51945">
        <ele>1219.09</ele>
        <time>2013-07-08T06:54:46Z</time>
      </trkpt>
      <trkpt lat="45.35765" lon="4.51931">
        <ele>1219.57</ele>
        <time>2013-07-08T06:54:57Z</time>
      </trkpt>
      <trkpt lat="45.35764" lon="4.51927">
        <ele>1219.57</ele>
        <time>2013-07-08T06:54:59Z</time>
      </trkpt>
      <trkpt lat="45.35748" lon="4.51908">
        <ele>1220.53</ele>
        <time>2013-07-08T06:55:16Z</time>
      </trkpt>
      <trkpt lat="45.35735" lon="4.51888">
        <ele>1221.49</ele>
        <time>2013-07-08T06:55:32Z</time>
      </trkpt>
      <trkpt lat="45.35721" lon="4.51866">
        <ele>1222.45</ele>
        <time>2013-07-08T06:55:49Z</time>
      </trkpt>
      <trkpt lat="45.35705" lon="4.51844">
        <ele>1223.42</ele>
        <time>2013-07-08T06:56:08Z</time>
      </trkpt>
      <trkpt lat="45.35691" lon="4.51826">
        <ele>1224.86</ele>
        <time>2013-07-08T06:56:24Z</time>
      </trkpt>
      <trkpt lat="45.35675" lon="4.5181">
        <ele>1225.34</ele>
        <time>2013-07-08T06:56:41Z</time>
      </trkpt>
      <trkpt lat="45.35659" lon="4.51797">
        <ele>1226.78</ele>
        <time>2013-07-08T06:56:58Z</time>
      </trkpt>
      <trkpt lat="45.35642" lon="4.51787">
        <ele>1227.74</ele>
        <time>2013-07-08T06:57:15Z</time>
      </trkpt>
      <trkpt lat="45.35619" lon="4.51788">
        <ele>1228.7</ele>
        <time>2013-07-08T06:57:35Z</time>
      </trkpt>
      <trkpt lat="45.35596" lon="4.51793">
        <ele>1229.66</ele>
        <time>2013-07-08T06:57:54Z</time>
      </trkpt>
      <trkpt lat="45.35595" lon="4.51793">
        <ele>1229.66</ele>
        <time>2013-07-08T06:57:55Z</time>
      </trkpt>
      <trkpt lat="45.35589" lon="4.51796">
        <ele>1229.66</ele>
        <time>2013-07-08T06:58:07Z</time>
      </trkpt>
      <trkpt lat="45.35567" lon="4.51805">
        <ele>1229.66</ele>
        <time>2013-07-08T06:58:25Z</time>
      </trkpt>
      <trkpt lat="45.35544" lon="4.51819">
        <ele>1230.14</ele>
        <time>2013-07-08T06:58:44Z</time>
      </trkpt>
      <trkpt lat="45.35526" lon="4.51836">
        <ele>1230.14</ele>
        <time>2013-07-08T06:59:01Z</time>
      </trkpt>
      <trkpt lat="45.35518" lon="4.51843">
        <ele>1230.62</ele>
        <time>2013-07-08T06:59:09Z</time>
      </trkpt>
      <trkpt lat="45.3551" lon="4.51859">
        <ele>1231.11</ele>
        <time>2013-07-08T06:59:26Z</time>
      </trkpt>
      <trkpt lat="45.35511" lon="4.51853">
        <ele>1231.11</ele>
        <time>2013-07-08T06:59:54Z</time>
      </trkpt>
      <trkpt lat="45.35504" lon="4.51864">
        <ele>1231.59</ele>
        <time>2013-07-08T07:00:19Z</time>
      </trkpt>
      <trkpt lat="45.35503" lon="4.51866">
        <ele>1231.11</ele>
        <time>2013-07-08T07:00:42Z</time>
      </trkpt>
      <trkpt lat="45.35503" lon="4.5187">
        <ele>1231.11</ele>
        <time>2013-07-08T07:01:05Z</time>
      </trkpt>
      <trkpt lat="45.355" lon="4.51866">
        <ele>1231.11</ele>
        <time>2013-07-08T07:01:19Z</time>
      </trkpt>
      <trkpt lat="45.35497" lon="4.51868">
        <ele>1231.59</ele>
        <time>2013-07-08T07:01:23Z</time>
      </trkpt>
      <trkpt lat="45.35481" lon="4.51884">
        <ele>1231.59</ele>
        <time>2013-07-08T07:01:42Z</time>
      </trkpt>
      <trkpt lat="45.35464" lon="4.51904">
        <ele>1233.03</ele>
        <time>2013-07-08T07:02:00Z</time>
      </trkpt>
      <trkpt lat="45.35448" lon="4.51923">
        <ele>1233.99</ele>
        <time>2013-07-08T07:02:18Z</time>
      </trkpt>
      <trkpt lat="45.35436" lon="4.51942">
        <ele>1234.95</ele>
        <time>2013-07-08T07:02:34Z</time>
      </trkpt>
      <trkpt lat="45.35426" lon="4.51959">
        <ele>1235.91</ele>
        <time>2013-07-08T07:02:49Z</time>
      </trkpt>
      <trkpt lat="45.35411" lon="4.51981">
        <ele>1237.35</ele>
        <time>2013-07-08T07:03:07Z</time>
      </trkpt>
      <trkpt lat="45.35405" lon="4.51994">
        <ele>1237.83</ele>
        <time>2013-07-08T07:03:17Z</time>
      </trkpt>
      <trkpt lat="45.3539" lon="4.52017">
        <ele>1238.8</ele>
        <time>2013-07-08T07:03:37Z</time>
      </trkpt>
      <trkpt lat="45.35379" lon="4.52029">
        <ele>1239.76</ele>
        <time>2013-07-08T07:03:53Z</time>
      </trkpt>
      <trkpt lat="45.35364" lon="4.52046">
        <ele>1239.28</ele>
        <time>2013-07-08T07:04:10Z</time>
      </trkpt>
      <trkpt lat="45.3535" lon="4.52062">
        <ele>1239.76</ele>
        <time>2013-07-08T07:04:24Z</time>
      </trkpt>
      <trkpt lat="45.35335" lon="4.52086">
        <ele>1240.24</ele>
        <time>2013-07-08T07:04:42Z</time>
      </trkpt>
      <trkpt lat="45.35319" lon="4.52098">
        <ele>1240.72</ele>
        <time>2013-07-08T07:04:59Z</time>
      </trkpt>
      <trkpt lat="45.35297" lon="4.52116">
        <ele>1242.16</ele>
        <time>2013-07-08T07:05:20Z</time>
      </trkpt>
      <trkpt lat="45.35275" lon="4.52125">
        <ele>1242.64</ele>
        <time>2013-07-08T07:05:40Z</time>
      </trkpt>
      <trkpt lat="45.35264" lon="4.52126">
        <ele>1243.6</ele>
        <time>2013-07-08T07:05:50Z</time>
      </trkpt>
      <trkpt lat="45.35257" lon="4.52128">
        <ele>1244.08</ele>
        <time>2013-07-08T07:05:57Z</time>
      </trkpt>
      <trkpt lat="45.35234" lon="4.52121">
        <ele>1244.56</ele>
        <time>2013-07-08T07:06:17Z</time>
      </trkpt>
      <trkpt lat="45.35216" lon="4.52113">
        <ele>1244.56</ele>
        <time>2013-07-08T07:06:32Z</time>
      </trkpt>
      <trkpt lat="45.35193" lon="4.52097">
        <ele>1244.08</ele>
        <time>2013-07-08T07:06:50Z</time>
      </trkpt>
      <trkpt lat="45.35174" lon="4.52086">
        <ele>1243.6</ele>
        <time>2013-07-08T07:07:06Z</time>
      </trkpt>
      <trkpt lat="45.35149" lon="4.52079">
        <ele>1243.12</ele>
        <time>2013-07-08T07:07:25Z</time>
      </trkpt>
      <trkpt lat="45.35125" lon="4.52077">
        <ele>1242.64</ele>
        <time>2013-07-08T07:07:43Z</time>
      </trkpt>
      <trkpt lat="45.35102" lon="4.52073">
        <ele>1242.64</ele>
        <time>2013-07-08T07:08:01Z</time>
      </trkpt>
      <trkpt lat="45.35081" lon="4.5207">
        <ele>1242.64</ele>
        <time>2013-07-08T07:08:20Z</time>
      </trkpt>
      <trkpt lat="45.35058" lon="4.52071">
        <ele>1242.64</ele>
        <time>2013-07-08T07:08:36Z</time>
      </trkpt>
      <trkpt lat="45.35031" lon="4.52081">
        <ele>1241.68</ele>
        <time>2013-07-08T07:08:57Z</time>
      </trkpt>
      <trkpt lat="45.35007" lon="4.52089">
        <ele>1241.2</ele>
        <time>2013-07-08T07:09:17Z</time>
      </trkpt>
      <trkpt lat="45.34985" lon="4.521">
        <ele>1241.2</ele>
        <time>2013-07-08T07:09:34Z</time>
      </trkpt>
      <trkpt lat="45.34965" lon="4.52114">
        <ele>1240.72</ele>
        <time>2013-07-08T07:09:50Z</time>
      </trkpt>
      <trkpt lat="45.34944" lon="4.52125">
        <ele>1240.24</ele>
        <time>2013-07-08T07:10:08Z</time>
      </trkpt>
      <trkpt lat="45.34919" lon="4.52131">
        <ele>1240.24</ele>
        <time>2013-07-08T07:10:28Z</time>
      </trkpt>
      <trkpt lat="45.34895" lon="4.52136">
        <ele>1240.24</ele>
        <time>2013-07-08T07:10:46Z</time>
      </trkpt>
      <trkpt lat="45.34872" lon="4.52142">
        <ele>1239.76</ele>
        <time>2013-07-08T07:11:05Z</time>
      </trkpt>
      <trkpt lat="45.34849" lon="4.52141">
        <ele>1240.24</ele>
        <time>2013-07-08T07:11:24Z</time>
      </trkpt>
      <trkpt lat="45.34823" lon="4.52135">
        <ele>1240.72</ele>
        <time>2013-07-08T07:11:46Z</time>
      </trkpt>
      <trkpt lat="45.34799" lon="4.52127">
        <ele>1241.68</ele>
        <time>2013-07-08T07:12:04Z</time>
      </trkpt>
      <trkpt lat="45.34798" lon="4.52125">
        <ele>1241.68</ele>
        <time>2013-07-08T07:12:06Z</time>
      </trkpt>
      <trkpt lat="45.34794" lon="4.5212">
        <ele>1242.16</ele>
        <time>2013-07-08T07:12:12Z</time>
      </trkpt>
      <trkpt lat="45.34777" lon="4.52106">
        <ele>1242.16</ele>
        <time>2013-07-08T07:12:27Z</time>
      </trkpt>
      <trkpt lat="45.34757" lon="4.52095">
        <ele>1243.12</ele>
        <time>2013-07-08T07:12:46Z</time>
      </trkpt>
      <trkpt lat="45.34736" lon="4.5208">
        <ele>1244.08</ele>
        <time>2013-07-08T07:13:05Z</time>
      </trkpt>
      <trkpt lat="45.34718" lon="4.52067">
        <ele>1245.53</ele>
        <time>2013-07-08T07:13:25Z</time>
      </trkpt>
      <trkpt lat="45.34697" lon="4.52053">
        <ele>1247.45</ele>
        <time>2013-07-08T07:13:46Z</time>
      </trkpt>
      <trkpt lat="45.34682" lon="4.52041">
        <ele>1248.89</ele>
        <time>2013-07-08T07:14:03Z</time>
      </trkpt>
      <trkpt lat="45.34667" lon="4.52031">
        <ele>1250.33</ele>
        <time>2013-07-08T07:14:22Z</time>
      </trkpt>
      <trkpt lat="45.34647" lon="4.52022">
        <ele>1252.25</ele>
        <time>2013-07-08T07:14:41Z</time>
      </trkpt>
      <trkpt lat="45.3463" lon="4.5201">
        <ele>1254.66</ele>
        <time>2013-07-08T07:15:02Z</time>
      </trkpt>
      <trkpt lat="45.34618" lon="4.51996">
        <ele>1255.62</ele>
        <time>2013-07-08T07:15:17Z</time>
      </trkpt>
      <trkpt lat="45.3461" lon="4.5197">
        <ele>1256.1</ele>
        <time>2013-07-08T07:15:35Z</time>
      </trkpt>
      <trkpt lat="45.34599" lon="4.51943">
        <ele>1256.58</ele>
        <time>2013-07-08T07:15:53Z</time>
      </trkpt>
      <trkpt lat="45.34588" lon="4.51917">
        <ele>1256.58</ele>
        <time>2013-07-08T07:16:11Z</time>
      </trkpt>
      <trkpt lat="45.3458" lon="4.51895">
        <ele>1257.06</ele>
        <time>2013-07-08T07:16:27Z</time>
      </trkpt>
      <trkpt lat="45.34569" lon="4.51869">
        <ele>1258.02</ele>
        <time>2013-07-08T07:16:45Z</time>
      </trkpt>
      <trkpt lat="45.34556" lon="4.51847">
        <ele>1258.5</ele>
        <time>2013-07-08T07:17:03Z</time>
      </trkpt>
      <trkpt lat="45.34539" lon="4.51828">
        <ele>1258.98</ele>
        <time>2013-07-08T07:17:20Z</time>
      </trkpt>
      <trkpt lat="45.34536" lon="4.51824">
        <ele>1258.5</ele>
        <time>2013-07-08T07:17:24Z</time>
      </trkpt>
      <trkpt lat="45.34526" lon="4.51814">
        <ele>1259.46</ele>
        <time>2013-07-08T07:17:40Z</time>
      </trkpt>
      <trkpt lat="45.34509" lon="4.51827">
        <ele>1259.46</ele>
        <time>2013-07-08T07:18:11Z</time>
      </trkpt>
      <trkpt lat="45.34522" lon="4.51818">
        <ele>1259.46</ele>
        <time>2013-07-08T07:18:34Z</time>
      </trkpt>
      <trkpt lat="45.34523" lon="4.51818">
        <ele>1259.46</ele>
        <time>2013-07-08T07:19:03Z</time>
      </trkpt>
      <trkpt lat="45.34518" lon="4.51824">
        <ele>1259.46</ele>
        <time>2013-07-08T07:19:33Z</time>
      </trkpt>
      <trkpt lat="45.34519" lon="4.51819">
        <ele>1259.94</ele>
        <time>2013-07-08T07:20:01Z</time>
      </trkpt>
      <trkpt lat="45.34519" lon="4.51805">
        <ele>1260.43</ele>
        <time>2013-07-08T07:20:34Z</time>
      </trkpt>
      <trkpt lat="45.345" lon="4.51785">
        <ele>1260.91</ele>
        <time>2013-07-08T07:20:51Z</time>
      </trkpt>
      <trkpt lat="45.34472" lon="4.51765">
        <ele>1261.39</ele>
        <time>2013-07-08T07:21:15Z</time>
      </trkpt>
      <trkpt lat="45.34452" lon="4.51752">
        <ele>1260.43</ele>
        <time>2013-07-08T07:21:33Z</time>
      </trkpt>
      <trkpt lat="45.34429" lon="4.51739">
        <ele>1259.46</ele>
        <time>2013-07-08T07:21:53Z</time>
      </trkpt>
      <trkpt lat="45.34402" lon="4.51729">
        <ele>1259.94</ele>
        <time>2013-07-08T07:22:14Z</time>
      </trkpt>
      <trkpt lat="45.34385" lon="4.51711">
        <ele>1259.46</ele>
        <time>2013-07-08T07:22:32Z</time>
      </trkpt>
      <trkpt lat="45.34367" lon="4.51691">
        <ele>1259.46</ele>
        <time>2013-07-08T07:22:51Z</time>
      </trkpt>
      <trkpt lat="45.34358" lon="4.5168">
        <ele>1259.94</ele>
        <time>2013-07-08T07:23:09Z</time>
      </trkpt>
      <trkpt lat="45.34358" lon="4.51683">
        <ele>1259.94</ele>
        <time>2013-07-08T07:23:24Z</time>
      </trkpt>
      <trkpt lat="45.3436" lon="4.51678">
        <ele>1259.94</ele>
        <time>2013-07-08T07:23:47Z</time>
      </trkpt>
      <trkpt lat="45.34365" lon="4.51678">
        <ele>1259.94</ele>
        <time>2013-07-08T07:24:21Z</time>
      </trkpt>
      <trkpt lat="45.34373" lon="4.51675">
        <ele>1260.91</ele>
        <time>2013-07-08T07:24:48Z</time>
      </trkpt>
      <trkpt lat="45.3435" lon="4.51659">
        <ele>1261.39</ele>
        <time>2013-07-08T07:25:03Z</time>
      </trkpt>
      <trkpt lat="45.3435" lon="4.51658">
        <ele>1260.91</ele>
        <time>2013-07-08T07:25:04Z</time>
      </trkpt>
      <trkpt lat="45.34338" lon="4.51632">
        <ele>1261.39</ele>
        <time>2013-07-08T07:25:24Z</time>
      </trkpt>
      <trkpt lat="45.34321" lon="4.51606">
        <ele>1261.39</ele>
        <time>2013-07-08T07:25:44Z</time>
      </trkpt>
      <trkpt lat="45.34309" lon="4.51581">
        <ele>1260.91</ele>
        <time>2013-07-08T07:25:59Z</time>
      </trkpt>
      <trkpt lat="45.34293" lon="4.51556">
        <ele>1261.39</ele>
        <time>2013-07-08T07:26:20Z</time>
      </trkpt>
      <trkpt lat="45.34273" lon="4.51527">
        <ele>1260.43</ele>
        <time>2013-07-08T07:26:41Z</time>
      </trkpt>
      <trkpt lat="45.34258" lon="4.51488">
        <ele>1260.43</ele>
        <time>2013-07-08T07:27:04Z</time>
      </trkpt>
      <trkpt lat="45.34239" lon="4.51458">
        <ele>1259.46</ele>
        <time>2013-07-08T07:27:25Z</time>
      </trkpt>
      <trkpt lat="45.34228" lon="4.51438">
        <ele>1259.46</ele>
        <time>2013-07-08T07:27:42Z</time>
      </trkpt>
      <trkpt lat="45.34225" lon="4.51429">
        <ele>1258.98</ele>
        <time>2013-07-08T07:27:48Z</time>
      </trkpt>
      <trkpt lat="45.34217" lon="4.51399">
        <ele>1258.02</ele>
        <time>2013-07-08T07:28:06Z</time>
      </trkpt>
      <trkpt lat="45.34207" lon="4.51368">
        <ele>1257.54</ele>
        <time>2013-07-08T07:28:24Z</time>
      </trkpt>
      <trkpt lat="45.342" lon="4.51328">
        <ele>1257.06</ele>
        <time>2013-07-08T07:28:44Z</time>
      </trkpt>
      <trkpt lat="45.34201" lon="4.51296">
        <ele>1256.1</ele>
        <time>2013-07-08T07:29:03Z</time>
      </trkpt>
      <trkpt lat="45.34202" lon="4.51288">
        <ele>1256.1</ele>
        <time>2013-07-08T07:29:07Z</time>
      </trkpt>
      <trkpt lat="45.34202" lon="4.51271">
        <ele>1255.14</ele>
        <time>2013-07-08T07:29:17Z</time>
      </trkpt>
      <trkpt lat="45.34203" lon="4.51227">
        <ele>1254.18</ele>
        <time>2013-07-08T07:29:41Z</time>
      </trkpt>
      <trkpt lat="45.34204" lon="4.51199">
        <ele>1253.22</ele>
        <time>2013-07-08T07:29:58Z</time>
      </trkpt>
      <trkpt lat="45.34203" lon="4.51168">
        <ele>1252.74</ele>
        <time>2013-07-08T07:30:14Z</time>
      </trkpt>
      <trkpt lat="45.34201" lon="4.51135">
        <ele>1252.25</ele>
        <time>2013-07-08T07:30:32Z</time>
      </trkpt>
      <trkpt lat="45.34192" lon="4.51096">
        <ele>1250.81</ele>
        <time>2013-07-08T07:30:53Z</time>
      </trkpt>
      <trkpt lat="45.34187" lon="4.51065">
        <ele>1250.33</ele>
        <time>2013-07-08T07:31:12Z</time>
      </trkpt>
      <trkpt lat="45.34178" lon="4.51033">
        <ele>1250.33</ele>
        <time>2013-07-08T07:31:32Z</time>
      </trkpt>
      <trkpt lat="45.34169" lon="4.51003">
        <ele>1248.89</ele>
        <time>2013-07-08T07:31:49Z</time>
      </trkpt>
      <trkpt lat="45.34164" lon="4.50974">
        <ele>1247.45</ele>
        <time>2013-07-08T07:32:07Z</time>
      </trkpt>
      <trkpt lat="45.34158" lon="4.50945">
        <ele>1246.01</ele>
        <time>2013-07-08T07:32:24Z</time>
      </trkpt>
      <trkpt lat="45.34149" lon="4.50913">
        <ele>1245.04</ele>
        <time>2013-07-08T07:32:42Z</time>
      </trkpt>
      <trkpt lat="45.34135" lon="4.5088">
        <ele>1244.56</ele>
        <time>2013-07-08T07:33:05Z</time>
      </trkpt>
      <trkpt lat="45.34119" lon="4.50846">
        <ele>1244.56</ele>
        <time>2013-07-08T07:33:27Z</time>
      </trkpt>
      <trkpt lat="45.34107" lon="4.50822">
        <ele>1244.08</ele>
        <time>2013-07-08T07:33:45Z</time>
      </trkpt>
      <trkpt lat="45.34094" lon="4.50789">
        <ele>1244.08</ele>
        <time>2013-07-08T07:34:05Z</time>
      </trkpt>
      <trkpt lat="45.34082" lon="4.5076">
        <ele>1243.6</ele>
        <time>2013-07-08T07:34:24Z</time>
      </trkpt>
      <trkpt lat="45.34074" lon="4.50731">
        <ele>1243.12</ele>
        <time>2013-07-08T07:34:41Z</time>
      </trkpt>
      <trkpt lat="45.34064" lon="4.507">
        <ele>1242.64</ele>
        <time>2013-07-08T07:35:00Z</time>
      </trkpt>
      <trkpt lat="45.34054" lon="4.50667">
        <ele>1241.68</ele>
        <time>2013-07-08T07:35:19Z</time>
      </trkpt>
      <trkpt lat="45.34047" lon="4.50628">
        <ele>1240.72</ele>
        <time>2013-07-08T07:35:41Z</time>
      </trkpt>
      <trkpt lat="45.3404" lon="4.50594">
        <ele>1240.72</ele>
        <time>2013-07-08T07:36:02Z</time>
      </trkpt>
      <trkpt lat="45.34039" lon="4.50581">
        <ele>1240.24</ele>
        <time>2013-07-08T07:36:08Z</time>
      </trkpt>
      <trkpt lat="45.34037" lon="4.50561">
        <ele>1240.24</ele>
        <time>2013-07-08T07:36:20Z</time>
      </trkpt>
      <trkpt lat="45.34038" lon="4.50526">
        <ele>1239.28</ele>
        <time>2013-07-08T07:36:39Z</time>
      </trkpt>
      <trkpt lat="45.34036" lon="4.50509">
        <ele>1239.76</ele>
        <time>2013-07-08T07:36:57Z</time>
      </trkpt>
      <trkpt lat="45.34041" lon="4.50508">
        <ele>1239.76</ele>
        <time>2013-07-08T07:37:28Z</time>
      </trkpt>
      <trkpt lat="45.34041" lon="4.50507">
        <ele>1238.8</ele>
        <time>2013-07-08T07:37:53Z</time>
      </trkpt>
      <trkpt lat="45.34046" lon="4.50506">
        <ele>1239.28</ele>
        <time>2013-07-08T07:38:19Z</time>
      </trkpt>
      <trkpt lat="45.34048" lon="4.50506">
        <ele>1239.76</ele>
        <time>2013-07-08T07:38:26Z</time>
      </trkpt>
      <trkpt lat="45.34051" lon="4.50503">
        <ele>1239.76</ele>
        <time>2013-07-08T07:38:29Z</time>
      </trkpt>
      <trkpt lat="45.34036" lon="4.50465">
        <ele>1239.28</ele>
        <time>2013-07-08T07:38:50Z</time>
      </trkpt>
      <trkpt lat="45.34034" lon="4.50437">
        <ele>1239.28</ele>
        <time>2013-07-08T07:39:07Z</time>
      </trkpt>
      <trkpt lat="45.34039" lon="4.50412">
        <ele>1239.28</ele>
        <time>2013-07-08T07:39:22Z</time>
      </trkpt>
      <trkpt lat="45.34043" lon="4.50373">
        <ele>1237.83</ele>
        <time>2013-07-08T07:39:43Z</time>
      </trkpt>
      <trkpt lat="45.34043" lon="4.50341">
        <ele>1236.39</ele>
        <time>2013-07-08T07:40:00Z</time>
      </trkpt>
      <trkpt lat="45.34039" lon="4.50308">
        <ele>1235.91</ele>
        <time>2013-07-08T07:40:18Z</time>
      </trkpt>
      <trkpt lat="45.34035" lon="4.50271">
        <ele>1235.43</ele>
        <time>2013-07-08T07:40:39Z</time>
      </trkpt>
      <trkpt lat="45.34029" lon="4.50237">
        <ele>1234.95</ele>
        <time>2013-07-08T07:40:58Z</time>
      </trkpt>
      <trkpt lat="45.34024" lon="4.50225">
        <ele>1234.95</ele>
        <time>2013-07-08T07:41:13Z</time>
      </trkpt>
      <trkpt lat="45.34024" lon="4.50224">
        <ele>1235.43</ele>
        <time>2013-07-08T07:41:14Z</time>
      </trkpt>
      <trkpt lat="45.34013" lon="4.50203">
        <ele>1235.91</ele>
        <time>2013-07-08T07:41:30Z</time>
      </trkpt>
      <trkpt lat="45.33999" lon="4.50175">
        <ele>1234.95</ele>
        <time>2013-07-08T07:41:48Z</time>
      </trkpt>
      <trkpt lat="45.33986" lon="4.50152">
        <ele>1235.43</ele>
        <time>2013-07-08T07:42:06Z</time>
      </trkpt>
      <trkpt lat="45.3397" lon="4.50128">
        <ele>1234.95</ele>
        <time>2013-07-08T07:42:23Z</time>
      </trkpt>
      <trkpt lat="45.33949" lon="4.50109">
        <ele>1234.47</ele>
        <time>2013-07-08T07:42:43Z</time>
      </trkpt>
      <trkpt lat="45.33939" lon="4.50097">
        <ele>1234.95</ele>
        <time>2013-07-08T07:43:01Z</time>
      </trkpt>
      <trkpt lat="45.33937" lon="4.50093">
        <ele>1234.47</ele>
        <time>2013-07-08T07:43:04Z</time>
      </trkpt>
      <trkpt lat="45.33918" lon="4.50072">
        <ele>1234.95</ele>
        <time>2013-07-08T07:43:23Z</time>
      </trkpt>
      <trkpt lat="45.33899" lon="4.50048">
        <ele>1234.95</ele>
        <time>2013-07-08T07:43:44Z</time>
      </trkpt>
      <trkpt lat="45.33878" lon="4.50024">
        <ele>1235.43</ele>
        <time>2013-07-08T07:44:05Z</time>
      </trkpt>
      <trkpt lat="45.33867" lon="4.50014">
        <ele>1235.91</ele>
        <time>2013-07-08T07:44:21Z</time>
      </trkpt>
      <trkpt lat="45.33867" lon="4.50011">
        <ele>1235.91</ele>
        <time>2013-07-08T07:44:25Z</time>
      </trkpt>
      <trkpt lat="45.33862" lon="4.49987">
        <ele>1236.39</ele>
        <time>2013-07-08T07:44:42Z</time>
      </trkpt>
      <trkpt lat="45.3386" lon="4.49982">
        <ele>1236.87</ele>
        <time>2013-07-08T07:45:05Z</time>
      </trkpt>
      <trkpt lat="45.33849" lon="4.4995">
        <ele>1238.32</ele>
        <time>2013-07-08T07:45:26Z</time>
      </trkpt>
      <trkpt lat="45.33841" lon="4.49929">
        <ele>1239.28</ele>
        <time>2013-07-08T07:45:42Z</time>
      </trkpt>
      <trkpt lat="45.33829" lon="4.49908">
        <ele>1241.2</ele>
        <time>2013-07-08T07:45:58Z</time>
      </trkpt>
      <trkpt lat="45.33827" lon="4.49903">
        <ele>1242.16</ele>
        <time>2013-07-08T07:46:13Z</time>
      </trkpt>
      <trkpt lat="45.33812" lon="4.49881">
        <ele>1243.6</ele>
        <time>2013-07-08T07:46:30Z</time>
      </trkpt>
      <trkpt lat="45.338" lon="4.49867">
        <ele>1245.53</ele>
        <time>2013-07-08T07:46:48Z</time>
      </trkpt>
      <trkpt lat="45.33789" lon="4.49852">
        <ele>1247.93</ele>
        <time>2013-07-08T07:47:09Z</time>
      </trkpt>
      <trkpt lat="45.3377" lon="4.49825">
        <ele>1249.85</ele>
        <time>2013-07-08T07:47:31Z</time>
      </trkpt>
      <trkpt lat="45.33762" lon="4.49807">
        <ele>1251.29</ele>
        <time>2013-07-08T07:47:47Z</time>
      </trkpt>
      <trkpt lat="45.33759" lon="4.49792">
        <ele>1252.25</ele>
        <time>2013-07-08T07:47:56Z</time>
      </trkpt>
      <trkpt lat="45.33757" lon="4.49756">
        <ele>1252.25</ele>
        <time>2013-07-08T07:48:17Z</time>
      </trkpt>
      <trkpt lat="45.33752" lon="4.49724">
        <ele>1252.25</ele>
        <time>2013-07-08T07:48:36Z</time>
      </trkpt>
      <trkpt lat="45.33745" lon="4.49703">
        <ele>1252.74</ele>
        <time>2013-07-08T07:48:52Z</time>
      </trkpt>
      <trkpt lat="45.33733" lon="4.49686">
        <ele>1253.22</ele>
        <time>2013-07-08T07:49:12Z</time>
      </trkpt>
      <trkpt lat="45.33713" lon="4.49664">
        <ele>1253.7</ele>
        <time>2013-07-08T07:49:32Z</time>
      </trkpt>
      <trkpt lat="45.33693" lon="4.49647">
        <ele>1254.18</ele>
        <time>2013-07-08T07:49:53Z</time>
      </trkpt>
      <trkpt lat="45.33678" lon="4.49641">
        <ele>1255.14</ele>
        <time>2013-07-08T07:50:08Z</time>
      </trkpt>
      <trkpt lat="45.3366" lon="4.49639">
        <ele>1255.14</ele>
        <time>2013-07-08T07:50:25Z</time>
      </trkpt>
      <trkpt lat="45.33655" lon="4.49639">
        <ele>1255.14</ele>
        <time>2013-07-08T07:50:29Z</time>
      </trkpt>
      <trkpt lat="45.33644" lon="4.49646">
        <ele>1256.1</ele>
        <time>2013-07-08T07:50:42Z</time>
      </trkpt>
      <trkpt lat="45.3364" lon="4.49649">
        <ele>1256.58</ele>
        <time>2013-07-08T07:50:51Z</time>
      </trkpt>
      <trkpt lat="45.33627" lon="4.49636">
        <ele>1255.14</ele>
        <time>2013-07-08T07:51:05Z</time>
      </trkpt>
      <trkpt lat="45.33604" lon="4.49632">
        <ele>1254.66</ele>
        <time>2013-07-08T07:51:23Z</time>
      </trkpt>
      <trkpt lat="45.33591" lon="4.49625">
        <ele>1254.18</ele>
        <time>2013-07-08T07:51:33Z</time>
      </trkpt>
      <trkpt lat="45.33582" lon="4.49617">
        <ele>1254.18</ele>
        <time>2013-07-08T07:51:53Z</time>
      </trkpt>
      <trkpt lat="45.33582" lon="4.49612">
        <ele>1254.18</ele>
        <time>2013-07-08T07:52:27Z</time>
      </trkpt>
      <trkpt lat="45.33571" lon="4.4961">
        <ele>1254.18</ele>
        <time>2013-07-08T07:52:47Z</time>
      </trkpt>
      <trkpt lat="45.33553" lon="4.49594">
        <ele>1254.18</ele>
        <time>2013-07-08T07:53:05Z</time>
      </trkpt>
      <trkpt lat="45.33531" lon="4.49578">
        <ele>1254.66</ele>
        <time>2013-07-08T07:53:23Z</time>
      </trkpt>
      <trkpt lat="45.33511" lon="4.49571">
        <ele>1256.1</ele>
        <time>2013-07-08T07:53:41Z</time>
      </trkpt>
      <trkpt lat="45.33497" lon="4.49555">
        <ele>1256.58</ele>
        <time>2013-07-08T07:53:59Z</time>
      </trkpt>
      <trkpt lat="45.33485" lon="4.49529">
        <ele>1256.58</ele>
        <time>2013-07-08T07:54:19Z</time>
      </trkpt>
      <trkpt lat="45.33472" lon="4.49504">
        <ele>1256.1</ele>
        <time>2013-07-08T07:54:38Z</time>
      </trkpt>
      <trkpt lat="45.3347" lon="4.49506">
        <ele>1256.58</ele>
        <time>2013-07-08T07:55:00Z</time>
      </trkpt>
      <trkpt lat="45.33464" lon="4.49499">
        <ele>1256.1</ele>
        <time>2013-07-08T07:55:31Z</time>
      </trkpt>
      <trkpt lat="45.3346" lon="4.49475">
        <ele>1254.18</ele>
        <time>2013-07-08T07:55:47Z</time>
      </trkpt>
      <trkpt lat="45.33459" lon="4.49471">
        <ele>1254.66</ele>
        <time>2013-07-08T07:55:49Z</time>
      </trkpt>
      <trkpt lat="45.33448" lon="4.49434">
        <ele>1253.22</ele>
        <time>2013-07-08T07:56:11Z</time>
      </trkpt>
      <trkpt lat="45.33445" lon="4.4943">
        <ele>1253.22</ele>
        <time>2013-07-08T07:56:15Z</time>
      </trkpt>
      <trkpt lat="45.33429" lon="4.49399">
        <ele>1252.25</ele>
        <time>2013-07-08T07:56:34Z</time>
      </trkpt>
      <trkpt lat="45.33418" lon="4.49375">
        <ele>1252.25</ele>
        <time>2013-07-08T07:56:53Z</time>
      </trkpt>
      <trkpt lat="45.33399" lon="4.49349">
        <ele>1252.25</ele>
        <time>2013-07-08T07:57:11Z</time>
      </trkpt>
      <trkpt lat="45.33383" lon="4.49323">
        <ele>1251.29</ele>
        <time>2013-07-08T07:57:29Z</time>
      </trkpt>
      <trkpt lat="45.3337" lon="4.49307">
        <ele>1250.33</ele>
        <time>2013-07-08T07:57:46Z</time>
      </trkpt>
      <trkpt lat="45.33352" lon="4.49284">
        <ele>1249.85</ele>
        <time>2013-07-08T07:58:04Z</time>
      </trkpt>
      <trkpt lat="45.33335" lon="4.49261">
        <ele>1248.41</ele>
        <time>2013-07-08T07:58:22Z</time>
      </trkpt>
      <trkpt lat="45.33329" lon="4.4924">
        <ele>1247.45</ele>
        <time>2013-07-08T07:58:36Z</time>
      </trkpt>
      <trkpt lat="45.3332" lon="4.4921">
        <ele>1245.53</ele>
        <time>2013-07-08T07:58:54Z</time>
      </trkpt>
      <trkpt lat="45.33317" lon="4.49176">
        <ele>1244.08</ele>
        <time>2013-07-08T07:59:13Z</time>
      </trkpt>
      <trkpt lat="45.33313" lon="4.49143">
        <ele>1243.6</ele>
        <time>2013-07-08T07:59:31Z</time>
      </trkpt>
      <trkpt lat="45.33309" lon="4.49115">
        <ele>1242.64</ele>
        <time>2013-07-08T07:59:48Z</time>
      </trkpt>
      <trkpt lat="45.33301" lon="4.49084">
        <ele>1242.16</ele>
        <time>2013-07-08T08:00:05Z</time>
      </trkpt>
      <trkpt lat="45.33288" lon="4.49057">
        <ele>1241.68</ele>
        <time>2013-07-08T08:00:22Z</time>
      </trkpt>
      <trkpt lat="45.33269" lon="4.49029">
        <ele>1240.24</ele>
        <time>2013-07-08T08:00:43Z</time>
      </trkpt>
      <trkpt lat="45.33249" lon="4.49017">
        <ele>1239.28</ele>
        <time>2013-07-08T08:01:02Z</time>
      </trkpt>
      <trkpt lat="45.33237" lon="4.49007">
        <ele>1237.83</ele>
        <time>2013-07-08T08:01:20Z</time>
      </trkpt>
      <trkpt lat="45.33223" lon="4.48997">
        <ele>1236.39</ele>
        <time>2013-07-08T08:01:33Z</time>
      </trkpt>
      <trkpt lat="45.33199" lon="4.4898">
        <ele>1234.47</ele>
        <time>2013-07-08T08:01:52Z</time>
      </trkpt>
      <trkpt lat="45.33181" lon="4.48965">
        <ele>1231.59</ele>
        <time>2013-07-08T08:02:10Z</time>
      </trkpt>
      <trkpt lat="45.3317" lon="4.48951">
        <ele>1230.62</ele>
        <time>2013-07-08T08:02:25Z</time>
      </trkpt>
      <trkpt lat="45.33168" lon="4.48942">
        <ele>1231.11</ele>
        <time>2013-07-08T08:02:45Z</time>
      </trkpt>
      <trkpt lat="45.33159" lon="4.48919">
        <ele>1230.14</ele>
        <time>2013-07-08T08:03:05Z</time>
      </trkpt>
      <trkpt lat="45.33151" lon="4.48902">
        <ele>1230.14</ele>
        <time>2013-07-08T08:03:23Z</time>
      </trkpt>
      <trkpt lat="45.33139" lon="4.48882">
        <ele>1228.22</ele>
        <time>2013-07-08T08:03:41Z</time>
      </trkpt>
      <trkpt lat="45.33129" lon="4.48871">
        <ele>1227.26</ele>
        <time>2013-07-08T08:03:58Z</time>
      </trkpt>
      <trkpt lat="45.33128" lon="4.4887">
        <ele>1227.26</ele>
        <time>2013-07-08T08:04:00Z</time>
      </trkpt>
      <trkpt lat="45.3312" lon="4.48863">
        <ele>1226.78</ele>
        <time>2013-07-08T08:04:16Z</time>
      </trkpt>
      <trkpt lat="45.33124" lon="4.48868">
        <ele>1226.78</ele>
        <time>2013-07-08T08:04:21Z</time>
      </trkpt>
      <trkpt lat="45.33137" lon="4.4889">
        <ele>1228.7</ele>
        <time>2013-07-08T08:04:39Z</time>
      </trkpt>
      <trkpt lat="45.33148" lon="4.48905">
        <ele>1229.66</ele>
        <time>2013-07-08T08:04:53Z</time>
      </trkpt>
      <trkpt lat="45.33157" lon="4.48926">
        <ele>1230.14</ele>
        <time>2013-07-08T08:05:09Z</time>
      </trkpt>
      <trkpt lat="45.33154" lon="4.48943">
        <ele>1230.14</ele>
        <time>2013-07-08T08:05:24Z</time>
      </trkpt>
      <trkpt lat="45.33142" lon="4.48956">
        <ele>1227.74</ele>
        <time>2013-07-08T08:05:40Z</time>
      </trkpt>
      <trkpt lat="45.33141" lon="4.48957">
        <ele>1227.26</ele>
        <time>2013-07-08T08:05:41Z</time>
      </trkpt>
      <trkpt lat="45.33126" lon="4.48971">
        <ele>1223.9</ele>
        <time>2013-07-08T08:05:58Z</time>
      </trkpt>
      <trkpt lat="45.33107" lon="4.48989">
        <ele>1221.97</ele>
        <time>2013-07-08T08:06:15Z</time>
      </trkpt>
      <trkpt lat="45.33083" lon="4.49">
        <ele>1219.57</ele>
        <time>2013-07-08T08:06:34Z</time>
      </trkpt>
      <trkpt lat="45.33063" lon="4.49006">
        <ele>1217.65</ele>
        <time>2013-07-08T08:06:52Z</time>
      </trkpt>
      <trkpt lat="45.33039" lon="4.49011">
        <ele>1215.72</ele>
        <time>2013-07-08T08:07:10Z</time>
      </trkpt>
      <trkpt lat="45.33016" lon="4.49005">
        <ele>1212.84</ele>
        <time>2013-07-08T08:07:27Z</time>
      </trkpt>
      <trkpt lat="45.32997" lon="4.49">
        <ele>1210.92</ele>
        <time>2013-07-08T08:07:43Z</time>
      </trkpt>
      <trkpt lat="45.3299" lon="4.48998">
        <ele>1209.96</ele>
        <time>2013-07-08T08:08:00Z</time>
      </trkpt>
      <trkpt lat="45.32976" lon="4.48995">
        <ele>1208.51</ele>
        <time>2013-07-08T08:08:15Z</time>
      </trkpt>
      <trkpt lat="45.32961" lon="4.48988">
        <ele>1205.63</ele>
        <time>2013-07-08T08:08:30Z</time>
      </trkpt>
      <trkpt lat="45.32954" lon="4.48985">
        <ele>1203.71</ele>
        <time>2013-07-08T08:08:37Z</time>
      </trkpt>
      <trkpt lat="45.32939" lon="4.48979">
        <ele>1201.79</ele>
        <time>2013-07-08T08:08:50Z</time>
      </trkpt>
      <trkpt lat="45.32916" lon="4.48973">
        <ele>1200.34</ele>
        <time>2013-07-08T08:09:05Z</time>
      </trkpt>
      <trkpt lat="45.32907" lon="4.48969">
        <ele>1199.86</ele>
        <time>2013-07-08T08:09:20Z</time>
      </trkpt>
      <trkpt lat="45.32913" lon="4.48969">
        <ele>1199.38</ele>
        <time>2013-07-08T08:09:35Z</time>
      </trkpt>
      <trkpt lat="45.32914" lon="4.48983">
        <ele>1200.34</ele>
        <time>2013-07-08T08:09:50Z</time>
      </trkpt>
      <trkpt lat="45.32913" lon="4.48989">
        <ele>1200.34</ele>
        <time>2013-07-08T08:10:08Z</time>
      </trkpt>
      <trkpt lat="45.3292" lon="4.49004">
        <ele>1201.3</ele>
        <time>2013-07-08T08:10:21Z</time>
      </trkpt>
      <trkpt lat="45.32928" lon="4.49019">
        <ele>1202.27</ele>
        <time>2013-07-08T08:10:36Z</time>
      </trkpt>
      <trkpt lat="45.32935" lon="4.49027">
        <ele>1202.75</ele>
        <time>2013-07-08T08:10:54Z</time>
      </trkpt>
      <trkpt lat="45.32938" lon="4.49016">
        <ele>1203.71</ele>
        <time>2013-07-08T08:11:08Z</time>
      </trkpt>
      <trkpt lat="45.32931" lon="4.49005">
        <ele>1203.71</ele>
        <time>2013-07-08T08:11:23Z</time>
      </trkpt>
      <trkpt lat="45.32926" lon="4.49002">
        <ele>1202.75</ele>
        <time>2013-07-08T08:11:41Z</time>
      </trkpt>
      <trkpt lat="45.32928" lon="4.48996">
        <ele>1203.23</ele>
        <time>2013-07-08T08:11:56Z</time>
      </trkpt>
      <trkpt lat="45.32932" lon="4.48994">
        <ele>1202.75</ele>
        <time>2013-07-08T08:12:25Z</time>
      </trkpt>
      <trkpt lat="45.32932" lon="4.48998">
        <ele>1201.79</ele>
        <time>2013-07-08T08:12:50Z</time>
      </trkpt>
      <trkpt lat="45.32936" lon="4.48989">
        <ele>1201.79</ele>
        <time>2013-07-08T08:13:23Z</time>
      </trkpt>
      <trkpt lat="45.3294" lon="4.4899">
        <ele>1202.27</ele>
        <time>2013-07-08T08:13:50Z</time>
      </trkpt>
      <trkpt lat="45.32938" lon="4.48993">
        <ele>1202.27</ele>
        <time>2013-07-08T08:14:14Z</time>
      </trkpt>
      <trkpt lat="45.32929" lon="4.49">
        <ele>1201.3</ele>
        <time>2013-07-08T08:14:44Z</time>
      </trkpt>
      <trkpt lat="45.32921" lon="4.4899">
        <ele>1201.3</ele>
        <time>2013-07-08T08:15:13Z</time>
      </trkpt>
      <trkpt lat="45.32928" lon="4.49001">
        <ele>1201.3</ele>
        <time>2013-07-08T08:15:36Z</time>
      </trkpt>
      <trkpt lat="45.32924" lon="4.49018">
        <ele>1201.79</ele>
        <time>2013-07-08T08:16:16Z</time>
      </trkpt>
      <trkpt lat="45.32929" lon="4.49008">
        <ele>1201.79</ele>
        <time>2013-07-08T08:16:48Z</time>
      </trkpt>
      <trkpt lat="45.32927" lon="4.49">
        <ele>1202.75</ele>
        <time>2013-07-08T08:17:18Z</time>
      </trkpt>
      <trkpt lat="45.32928" lon="4.49011">
        <ele>1202.27</ele>
        <time>2013-07-08T08:17:51Z</time>
      </trkpt>
      <trkpt lat="45.32927" lon="4.48999">
        <ele>1201.79</ele>
        <time>2013-07-08T08:18:18Z</time>
      </trkpt>
      <trkpt lat="45.32922" lon="4.48999">
        <ele>1202.27</ele>
        <time>2013-07-08T08:18:37Z</time>
      </trkpt>
      <trkpt lat="45.32927" lon="4.49018">
        <ele>1202.27</ele>
        <time>2013-07-08T08:18:52Z</time>
      </trkpt>
      <trkpt lat="45.32932" lon="4.49013">
        <ele>1202.27</ele>
        <time>2013-07-08T08:19:11Z</time>
      </trkpt>
      <trkpt lat="45.32927" lon="4.49007">
        <ele>1202.75</ele>
        <time>2013-07-08T08:19:26Z</time>
      </trkpt>
      <trkpt lat="45.32927" lon="4.49023">
        <ele>1202.27</ele>
        <time>2013-07-08T08:19:44Z</time>
      </trkpt>
      <trkpt lat="45.32928" lon="4.49033">
        <ele>1203.23</ele>
        <time>2013-07-08T08:19:52Z</time>
      </trkpt>
      <trkpt lat="45.32931" lon="4.49046">
        <ele>1204.19</ele>
        <time>2013-07-08T08:20:11Z</time>
      </trkpt>
      <trkpt lat="45.32935" lon="4.4905">
        <ele>1203.71</ele>
        <time>2013-07-08T08:20:29Z</time>
      </trkpt>
      <trkpt lat="45.32938" lon="4.4905">
        <ele>1204.67</ele>
        <time>2013-07-08T08:20:44Z</time>
      </trkpt>
      <trkpt lat="45.32924" lon="4.49045">
        <ele>1204.19</ele>
        <time>2013-07-08T08:21:16Z</time>
      </trkpt>
      <trkpt lat="45.32928" lon="4.49046">
        <ele>1204.67</ele>
        <time>2013-07-08T08:21:34Z</time>
      </trkpt>
      <trkpt lat="45.32924" lon="4.49052">
        <ele>1204.67</ele>
        <time>2013-07-08T08:22:02Z</time>
      </trkpt>
      <trkpt lat="45.32923" lon="4.49045">
        <ele>1204.67</ele>
        <time>2013-07-08T08:22:41Z</time>
      </trkpt>
      <trkpt lat="45.3294" lon="4.49047">
        <ele>1204.67</ele>
        <time>2013-07-08T08:23:19Z</time>
      </trkpt>
      <trkpt lat="45.32937" lon="4.49045">
        <ele>1205.63</ele>
        <time>2013-07-08T08:23:48Z</time>
      </trkpt>
      <trkpt lat="45.32935" lon="4.49045">
        <ele>1204.67</ele>
        <time>2013-07-08T08:24:18Z</time>
      </trkpt>
      <trkpt lat="45.32936" lon="4.49049">
        <ele>1205.63</ele>
        <time>2013-07-08T08:24:39Z</time>
      </trkpt>
      <trkpt lat="45.32934" lon="4.49048">
        <ele>1205.63</ele>
        <time>2013-07-08T08:25:03Z</time>
      </trkpt>
      <trkpt lat="45.32934" lon="4.4905">
        <ele>1205.63</ele>
        <time>2013-07-08T08:25:25Z</time>
      </trkpt>
      <trkpt lat="45.32934" lon="4.4905">
        <ele>1206.11</ele>
        <time>2013-07-08T08:25:29Z</time>
      </trkpt>
      <trkpt lat="45.32933" lon="4.49074">
        <ele>1207.07</ele>
        <time>2013-07-08T08:25:48Z</time>
      </trkpt>
      <trkpt lat="45.3293" lon="4.49098">
        <ele>1208.03</ele>
        <time>2013-07-08T08:26:05Z</time>
      </trkpt>
      <trkpt lat="45.3293" lon="4.49126">
        <ele>1209.48</ele>
        <time>2013-07-08T08:26:24Z</time>
      </trkpt>
      <trkpt lat="45.3293" lon="4.49152">
        <ele>1211.4</ele>
        <time>2013-07-08T08:26:42Z</time>
      </trkpt>
      <trkpt lat="45.3293" lon="4.49172">
        <ele>1212.84</ele>
        <time>2013-07-08T08:26:59Z</time>
      </trkpt>
      <trkpt lat="45.32929" lon="4.492">
        <ele>1214.28</ele>
        <time>2013-07-08T08:27:18Z</time>
      </trkpt>
      <trkpt lat="45.32927" lon="4.49228">
        <ele>1215.24</ele>
        <time>2013-07-08T08:27:36Z</time>
      </trkpt>
      <trkpt lat="45.32937" lon="4.49254">
        <ele>1216.21</ele>
        <time>2013-07-08T08:27:51Z</time>
      </trkpt>
      <trkpt lat="45.32941" lon="4.49277">
        <ele>1217.17</ele>
        <time>2013-07-08T08:28:08Z</time>
      </trkpt>
      <trkpt lat="45.32945" lon="4.49299">
        <ele>1218.61</ele>
        <time>2013-07-08T08:28:25Z</time>
      </trkpt>
      <trkpt lat="45.32947" lon="4.49318">
        <ele>1220.05</ele>
        <time>2013-07-08T08:28:40Z</time>
      </trkpt>
      <trkpt lat="45.3295" lon="4.49338">
        <ele>1221.97</ele>
        <time>2013-07-08T08:28:54Z</time>
      </trkpt>
      <trkpt lat="45.32955" lon="4.49361">
        <ele>1223.42</ele>
        <time>2013-07-08T08:29:11Z</time>
      </trkpt>
      <trkpt lat="45.32948" lon="4.49385">
        <ele>1224.38</ele>
        <time>2013-07-08T08:29:28Z</time>
      </trkpt>
      <trkpt lat="45.32947" lon="4.49389">
        <ele>1223.42</ele>
        <time>2013-07-08T08:29:31Z</time>
      </trkpt>
      <trkpt lat="45.32942" lon="4.49416">
        <ele>1224.38</ele>
        <time>2013-07-08T08:29:50Z</time>
      </trkpt>
      <trkpt lat="45.32931" lon="4.49445">
        <ele>1225.34</ele>
        <time>2013-07-08T08:30:11Z</time>
      </trkpt>
      <trkpt lat="45.32919" lon="4.49473">
        <ele>1224.86</ele>
        <time>2013-07-08T08:30:31Z</time>
      </trkpt>
      <trkpt lat="45.32916" lon="4.49477">
        <ele>1223.9</ele>
        <time>2013-07-08T08:30:34Z</time>
      </trkpt>
      <trkpt lat="45.329" lon="4.49501">
        <ele>1222.93</ele>
        <time>2013-07-08T08:30:54Z</time>
      </trkpt>
      <trkpt lat="45.32889" lon="4.49516">
        <ele>1222.93</ele>
        <time>2013-07-08T08:31:10Z</time>
      </trkpt>
      <trkpt lat="45.32879" lon="4.49539">
        <ele>1222.93</ele>
        <time>2013-07-08T08:31:27Z</time>
      </trkpt>
      <trkpt lat="45.32869" lon="4.49559">
        <ele>1223.42</ele>
        <time>2013-07-08T08:31:43Z</time>
      </trkpt>
      <trkpt lat="45.32857" lon="4.49587">
        <ele>1223.42</ele>
        <time>2013-07-08T08:32:03Z</time>
      </trkpt>
      <trkpt lat="45.32846" lon="4.49615">
        <ele>1223.42</ele>
        <time>2013-07-08T08:32:19Z</time>
      </trkpt>
      <trkpt lat="45.32839" lon="4.4964">
        <ele>1223.9</ele>
        <time>2013-07-08T08:32:37Z</time>
      </trkpt>
      <trkpt lat="45.32836" lon="4.49649">
        <ele>1223.9</ele>
        <time>2013-07-08T08:32:43Z</time>
      </trkpt>
      <trkpt lat="45.32829" lon="4.4967">
        <ele>1224.38</ele>
        <time>2013-07-08T08:32:58Z</time>
      </trkpt>
      <trkpt lat="45.3282" lon="4.49702">
        <ele>1224.86</ele>
        <time>2013-07-08T08:33:18Z</time>
      </trkpt>
      <trkpt lat="45.32818" lon="4.49735">
        <ele>1225.34</ele>
        <time>2013-07-08T08:33:39Z</time>
      </trkpt>
      <trkpt lat="45.32815" lon="4.49765">
        <ele>1225.34</ele>
        <time>2013-07-08T08:33:57Z</time>
      </trkpt>
      <trkpt lat="45.32816" lon="4.49767">
        <ele>1225.34</ele>
        <time>2013-07-08T08:33:58Z</time>
      </trkpt>
      <trkpt lat="45.32821" lon="4.49793">
        <ele>1225.34</ele>
        <time>2013-07-08T08:34:13Z</time>
      </trkpt>
      <trkpt lat="45.32824" lon="4.49814">
        <ele>1225.82</ele>
        <time>2013-07-08T08:34:30Z</time>
      </trkpt>
      <trkpt lat="45.32831" lon="4.49826">
        <ele>1225.82</ele>
        <time>2013-07-08T08:34:47Z</time>
      </trkpt>
      <trkpt lat="45.32829" lon="4.49828">
        <ele>1225.82</ele>
        <time>2013-07-08T08:35:19Z</time>
      </trkpt>
      <trkpt lat="45.32838" lon="4.49842">
        <ele>1226.3</ele>
        <time>2013-07-08T08:35:35Z</time>
      </trkpt>
      <trkpt lat="45.32853" lon="4.49864">
        <ele>1225.82</ele>
        <time>2013-07-08T08:35:53Z</time>
      </trkpt>
      <trkpt lat="45.32863" lon="4.49887">
        <ele>1225.34</ele>
        <time>2013-07-08T08:36:08Z</time>
      </trkpt>
      <trkpt lat="45.32869" lon="4.499">
        <ele>1225.34</ele>
        <time>2013-07-08T08:36:16Z</time>
      </trkpt>
      <trkpt lat="45.32886" lon="4.49921">
        <ele>1224.38</ele>
        <time>2013-07-08T08:36:35Z</time>
      </trkpt>
      <trkpt lat="45.32898" lon="4.49934">
        <ele>1225.82</ele>
        <time>2013-07-08T08:36:50Z</time>
      </trkpt>
      <trkpt lat="45.32913" lon="4.49953">
        <ele>1226.3</ele>
        <time>2013-07-08T08:37:08Z</time>
      </trkpt>
      <trkpt lat="45.32929" lon="4.49975">
        <ele>1226.78</ele>
        <time>2013-07-08T08:37:28Z</time>
      </trkpt>
      <trkpt lat="45.32944" lon="4.49996">
        <ele>1227.26</ele>
        <time>2013-07-08T08:37:45Z</time>
      </trkpt>
      <trkpt lat="45.32957" lon="4.5002">
        <ele>1227.74</ele>
        <time>2013-07-08T08:38:03Z</time>
      </trkpt>
      <trkpt lat="45.32971" lon="4.50038">
        <ele>1227.74</ele>
        <time>2013-07-08T08:38:19Z</time>
      </trkpt>
      <trkpt lat="45.32985" lon="4.5006">
        <ele>1227.74</ele>
        <time>2013-07-08T08:38:36Z</time>
      </trkpt>
      <trkpt lat="45.32988" lon="4.50068">
        <ele>1227.74</ele>
        <time>2013-07-08T08:38:42Z</time>
      </trkpt>
      <trkpt lat="45.33001" lon="4.5009">
        <ele>1228.22</ele>
        <time>2013-07-08T08:39:00Z</time>
      </trkpt>
      <trkpt lat="45.33011" lon="4.50112">
        <ele>1229.18</ele>
        <time>2013-07-08T08:39:16Z</time>
      </trkpt>
      <trkpt lat="45.33024" lon="4.50137">
        <ele>1229.66</ele>
        <time>2013-07-08T08:39:35Z</time>
      </trkpt>
      <trkpt lat="45.33034" lon="4.50159">
        <ele>1230.14</ele>
        <time>2013-07-08T08:39:51Z</time>
      </trkpt>
      <trkpt lat="45.33043" lon="4.50185">
        <ele>1230.14</ele>
        <time>2013-07-08T08:40:08Z</time>
      </trkpt>
      <trkpt lat="45.33051" lon="4.50209">
        <ele>1231.11</ele>
        <time>2013-07-08T08:40:26Z</time>
      </trkpt>
      <trkpt lat="45.33059" lon="4.50229">
        <ele>1231.11</ele>
        <time>2013-07-08T08:40:43Z</time>
      </trkpt>
      <trkpt lat="45.33058" lon="4.50251">
        <ele>1231.11</ele>
        <time>2013-07-08T08:40:57Z</time>
      </trkpt>
      <trkpt lat="45.33059" lon="4.50282">
        <ele>1231.11</ele>
        <time>2013-07-08T08:41:18Z</time>
      </trkpt>
      <trkpt lat="45.3306" lon="4.50308">
        <ele>1231.11</ele>
        <time>2013-07-08T08:41:37Z</time>
      </trkpt>
      <trkpt lat="45.33057" lon="4.50331">
        <ele>1232.55</ele>
        <time>2013-07-08T08:41:53Z</time>
      </trkpt>
      <trkpt lat="45.3306" lon="4.50351">
        <ele>1232.55</ele>
        <time>2013-07-08T08:42:13Z</time>
      </trkpt>
      <trkpt lat="45.3306" lon="4.50362">
        <ele>1232.07</ele>
        <time>2013-07-08T08:42:43Z</time>
      </trkpt>
      <trkpt lat="45.33065" lon="4.50365">
        <ele>1232.07</ele>
        <time>2013-07-08T08:43:05Z</time>
      </trkpt>
      <trkpt lat="45.33067" lon="4.50368">
        <ele>1232.07</ele>
        <time>2013-07-08T08:43:33Z</time>
      </trkpt>
      <trkpt lat="45.3307" lon="4.50372">
        <ele>1232.07</ele>
        <time>2013-07-08T08:44:01Z</time>
      </trkpt>
      <trkpt lat="45.33072" lon="4.50373">
        <ele>1232.07</ele>
        <time>2013-07-08T08:44:34Z</time>
      </trkpt>
      <trkpt lat="45.33077" lon="4.50372">
        <ele>1232.55</ele>
        <time>2013-07-08T08:45:01Z</time>
      </trkpt>
      <trkpt lat="45.33093" lon="4.50363">
        <ele>1234.47</ele>
        <time>2013-07-08T08:45:20Z</time>
      </trkpt>
      <trkpt lat="45.33108" lon="4.50361">
        <ele>1236.39</ele>
        <time>2013-07-08T08:45:36Z</time>
      </trkpt>
      <trkpt lat="45.3312" lon="4.50362">
        <ele>1237.35</ele>
        <time>2013-07-08T08:45:52Z</time>
      </trkpt>
      <trkpt lat="45.33137" lon="4.50365">
        <ele>1238.8</ele>
        <time>2013-07-08T08:46:09Z</time>
      </trkpt>
      <trkpt lat="45.3316" lon="4.5037">
        <ele>1239.28</ele>
        <time>2013-07-08T08:46:27Z</time>
      </trkpt>
      <trkpt lat="45.33179" lon="4.50364">
        <ele>1240.24</ele>
        <time>2013-07-08T08:46:46Z</time>
      </trkpt>
      <trkpt lat="45.33201" lon="4.50354">
        <ele>1240.72</ele>
        <time>2013-07-08T08:47:06Z</time>
      </trkpt>
      <trkpt lat="45.33218" lon="4.50353">
        <ele>1241.2</ele>
        <time>2013-07-08T08:47:22Z</time>
      </trkpt>
      <trkpt lat="45.33223" lon="4.50354">
        <ele>1241.2</ele>
        <time>2013-07-08T08:47:38Z</time>
      </trkpt>
      <trkpt lat="45.33227" lon="4.50357">
        <ele>1241.68</ele>
        <time>2013-07-08T08:48:12Z</time>
      </trkpt>
      <trkpt lat="45.33227" lon="4.50358">
        <ele>1241.68</ele>
        <time>2013-07-08T08:48:37Z</time>
      </trkpt>
      <trkpt lat="45.33227" lon="4.50371">
        <ele>1241.68</ele>
        <time>2013-07-08T08:49:03Z</time>
      </trkpt>
      <trkpt lat="45.33227" lon="4.50372">
        <ele>1241.68</ele>
        <time>2013-07-08T08:49:21Z</time>
      </trkpt>
      <trkpt lat="45.33227" lon="4.50375">
        <ele>1241.68</ele>
        <time>2013-07-08T08:49:26Z</time>
      </trkpt>
      <trkpt lat="45.3323" lon="4.50408">
        <ele>1239.28</ele>
        <time>2013-07-08T08:49:47Z</time>
      </trkpt>
      <trkpt lat="45.33232" lon="4.50405">
        <ele>1239.28</ele>
        <time>2013-07-08T08:50:05Z</time>
      </trkpt>
      <trkpt lat="45.33236" lon="4.50402">
        <ele>1239.28</ele>
        <time>2013-07-08T08:50:23Z</time>
      </trkpt>
      <trkpt lat="45.33249" lon="4.50389">
        <ele>1239.28</ele>
        <time>2013-07-08T08:50:39Z</time>
      </trkpt>
      <trkpt lat="45.33257" lon="4.50376">
        <ele>1240.72</ele>
        <time>2013-07-08T08:50:52Z</time>
      </trkpt>
      <trkpt lat="45.33271" lon="4.50362">
        <ele>1242.16</ele>
        <time>2013-07-08T08:51:08Z</time>
      </trkpt>
      <trkpt lat="45.33287" lon="4.50341">
        <ele>1243.12</ele>
        <time>2013-07-08T08:51:27Z</time>
      </trkpt>
      <trkpt lat="45.33301" lon="4.50318">
        <ele>1244.08</ele>
        <time>2013-07-08T08:51:43Z</time>
      </trkpt>
      <trkpt lat="45.33308" lon="4.50304">
        <ele>1244.56</ele>
        <time>2013-07-08T08:51:58Z</time>
      </trkpt>
      <trkpt lat="45.33308" lon="4.50301">
        <ele>1245.04</ele>
        <time>2013-07-08T08:52:16Z</time>
      </trkpt>
      <trkpt lat="45.33313" lon="4.50306">
        <ele>1244.08</ele>
        <time>2013-07-08T08:52:35Z</time>
      </trkpt>
      <trkpt lat="45.33311" lon="4.50311">
        <ele>1244.56</ele>
        <time>2013-07-08T08:52:59Z</time>
      </trkpt>
      <trkpt lat="45.3331" lon="4.50311">
        <ele>1244.56</ele>
        <time>2013-07-08T08:53:00Z</time>
      </trkpt>
      <trkpt lat="45.33292" lon="4.50331">
        <ele>1243.6</ele>
        <time>2013-07-08T08:53:18Z</time>
      </trkpt>
      <trkpt lat="45.33277" lon="4.50346">
        <ele>1242.64</ele>
        <time>2013-07-08T08:53:33Z</time>
      </trkpt>
      <trkpt lat="45.33275" lon="4.50349">
        <ele>1242.64</ele>
        <time>2013-07-08T08:53:36Z</time>
      </trkpt>
      <trkpt lat="45.33257" lon="4.50374">
        <ele>1241.2</ele>
        <time>2013-07-08T08:53:55Z</time>
      </trkpt>
      <trkpt lat="45.33243" lon="4.50388">
        <ele>1240.24</ele>
        <time>2013-07-08T08:54:07Z</time>
      </trkpt>
      <trkpt lat="45.33229" lon="4.50404">
        <ele>1239.76</ele>
        <time>2013-07-08T08:54:23Z</time>
      </trkpt>
      <trkpt lat="45.33226" lon="4.50392">
        <ele>1240.24</ele>
        <time>2013-07-08T08:54:34Z</time>
      </trkpt>
      <trkpt lat="45.33225" lon="4.50363">
        <ele>1242.16</ele>
        <time>2013-07-08T08:54:54Z</time>
      </trkpt>
      <trkpt lat="45.33223" lon="4.50336">
        <ele>1243.12</ele>
        <time>2013-07-08T08:55:12Z</time>
      </trkpt>
      <trkpt lat="45.33226" lon="4.50314">
        <ele>1245.04</ele>
        <time>2013-07-08T08:55:29Z</time>
      </trkpt>
      <trkpt lat="45.33227" lon="4.50306">
        <ele>1245.53</ele>
        <time>2013-07-08T08:55:35Z</time>
      </trkpt>
      <trkpt lat="45.33234" lon="4.50287">
        <ele>1246.49</ele>
        <time>2013-07-08T08:55:49Z</time>
      </trkpt>
      <trkpt lat="45.33238" lon="4.50272">
        <ele>1246.97</ele>
        <time>2013-07-08T08:56:00Z</time>
      </trkpt>
      <trkpt lat="45.33241" lon="4.50257">
        <ele>1247.93</ele>
        <time>2013-07-08T08:56:10Z</time>
      </trkpt>
      <trkpt lat="45.33246" lon="4.50242">
        <ele>1249.37</ele>
        <time>2013-07-08T08:56:23Z</time>
      </trkpt>
      <trkpt lat="45.33253" lon="4.50224">
        <ele>1250.33</ele>
        <time>2013-07-08T08:56:38Z</time>
      </trkpt>
      <trkpt lat="45.3326" lon="4.50208">
        <ele>1251.29</ele>
        <time>2013-07-08T08:56:51Z</time>
      </trkpt>
      <trkpt lat="45.33258" lon="4.50204">
        <ele>1248.89</ele>
        <time>2013-07-08T08:57:19Z</time>
      </trkpt>
      <trkpt lat="45.33256" lon="4.50213">
        <ele>1251.29</ele>
        <time>2013-07-08T08:57:25Z</time>
      </trkpt>
      <trkpt lat="45.33251" lon="4.50225">
        <ele>1250.33</ele>
        <time>2013-07-08T08:57:41Z</time>
      </trkpt>
      <trkpt lat="45.33244" lon="4.50254">
        <ele>1248.89</ele>
        <time>2013-07-08T08:57:58Z</time>
      </trkpt>
      <trkpt lat="45.33235" lon="4.5028">
        <ele>1246.97</ele>
        <time>2013-07-08T08:58:14Z</time>
      </trkpt>
      <trkpt lat="45.33224" lon="4.50309">
        <ele>1245.04</ele>
        <time>2013-07-08T08:58:32Z</time>
      </trkpt>
      <trkpt lat="45.33221" lon="4.50329">
        <ele>1243.6</ele>
        <time>2013-07-08T08:58:43Z</time>
      </trkpt>
      <trkpt lat="45.3322" lon="4.50343">
        <ele>1243.6</ele>
        <time>2013-07-08T08:58:51Z</time>
      </trkpt>
      <trkpt lat="45.3322" lon="4.50352">
        <ele>1243.12</ele>
        <time>2013-07-08T08:58:56Z</time>
      </trkpt>
      <trkpt lat="45.33222" lon="4.50358">
        <ele>1242.16</ele>
        <time>2013-07-08T08:59:00Z</time>
      </trkpt>
      <trkpt lat="45.33227" lon="4.50387">
        <ele>1241.2</ele>
        <time>2013-07-08T08:59:18Z</time>
      </trkpt>
      <trkpt lat="45.33225" lon="4.50413">
        <ele>1239.76</ele>
        <time>2013-07-08T08:59:37Z</time>
      </trkpt>
      <trkpt lat="45.33225" lon="4.50413">
        <ele>1239.76</ele>
        <time>2013-07-08T08:59:38Z</time>
      </trkpt>
      <trkpt lat="45.33224" lon="4.50417">
        <ele>1238.32</ele>
        <time>2013-07-08T08:59:41Z</time>
      </trkpt>
      <trkpt lat="45.33223" lon="4.5042">
        <ele>1238.32</ele>
        <time>2013-07-08T08:59:43Z</time>
      </trkpt>
      <trkpt lat="45.33218" lon="4.50444">
        <ele>1235.91</ele>
        <time>2013-07-08T08:59:59Z</time>
      </trkpt>
      <trkpt lat="45.3321" lon="4.50466">
        <ele>1233.99</ele>
        <time>2013-07-08T09:00:16Z</time>
      </trkpt>
      <trkpt lat="45.33208" lon="4.50475">
        <ele>1233.51</ele>
        <time>2013-07-08T09:00:21Z</time>
      </trkpt>
      <trkpt lat="45.33201" lon="4.50508">
        <ele>1230.14</ele>
        <time>2013-07-08T09:00:39Z</time>
      </trkpt>
      <trkpt lat="45.33197" lon="4.50533">
        <ele>1228.22</ele>
        <time>2013-07-08T09:00:56Z</time>
      </trkpt>
      <trkpt lat="45.33194" lon="4.50546">
        <ele>1226.78</ele>
        <time>2013-07-08T09:01:04Z</time>
      </trkpt>
      <trkpt lat="45.33192" lon="4.50566">
        <ele>1225.34</ele>
        <time>2013-07-08T09:01:21Z</time>
      </trkpt>
      <trkpt lat="45.33192" lon="4.50566">
        <ele>1225.34</ele>
        <time>2013-07-08T09:01:39Z</time>
      </trkpt>
      <trkpt lat="45.33192" lon="4.50569">
        <ele>1224.86</ele>
        <time>2013-07-08T09:02:17Z</time>
      </trkpt>
      <trkpt lat="45.33193" lon="4.50571">
        <ele>1224.86</ele>
        <time>2013-07-08T09:02:20Z</time>
      </trkpt>
      <trkpt lat="45.33201" lon="4.50594">
        <ele>1222.45</ele>
        <time>2013-07-08T09:02:34Z</time>
      </trkpt>
      <trkpt lat="45.33216" lon="4.50614">
        <ele>1219.57</ele>
        <time>2013-07-08T09:02:52Z</time>
      </trkpt>
      <trkpt lat="45.33236" lon="4.50631">
        <ele>1216.21</ele>
        <time>2013-07-08T09:03:13Z</time>
      </trkpt>
      <trkpt lat="45.33253" lon="4.50633">
        <ele>1213.32</ele>
        <time>2013-07-08T09:03:27Z</time>
      </trkpt>
      <trkpt lat="45.3328" lon="4.50629">
        <ele>1212.36</ele>
        <time>2013-07-08T09:03:47Z</time>
      </trkpt>
      <trkpt lat="45.33298" lon="4.50619">
        <ele>1211.4</ele>
        <time>2013-07-08T09:04:03Z</time>
      </trkpt>
      <trkpt lat="45.33321" lon="4.50614">
        <ele>1209.96</ele>
        <time>2013-07-08T09:04:22Z</time>
      </trkpt>
      <trkpt lat="45.33343" lon="4.50607">
        <ele>1209</ele>
        <time>2013-07-08T09:04:41Z</time>
      </trkpt>
      <trkpt lat="45.33367" lon="4.50598">
        <ele>1207.07</ele>
        <time>2013-07-08T09:05:01Z</time>
      </trkpt>
      <trkpt lat="45.33393" lon="4.50587">
        <ele>1205.63</ele>
        <time>2013-07-08T09:05:22Z</time>
      </trkpt>
      <trkpt lat="45.33408" lon="4.50582">
        <ele>1204.67</ele>
        <time>2013-07-08T09:05:37Z</time>
      </trkpt>
      <trkpt lat="45.33432" lon="4.50579">
        <ele>1203.23</ele>
        <time>2013-07-08T09:05:56Z</time>
      </trkpt>
      <trkpt lat="45.33459" lon="4.50576">
        <ele>1201.79</ele>
        <time>2013-07-08T09:06:17Z</time>
      </trkpt>
      <trkpt lat="45.33479" lon="4.50574">
        <ele>1201.3</ele>
        <time>2013-07-08T09:06:34Z</time>
      </trkpt>
      <trkpt lat="45.33502" lon="4.50568">
        <ele>1201.3</ele>
        <time>2013-07-08T09:06:54Z</time>
      </trkpt>
      <trkpt lat="45.33516" lon="4.50561">
        <ele>1201.79</ele>
        <time>2013-07-08T09:07:08Z</time>
      </trkpt>
      <trkpt lat="45.33537" lon="4.50551">
        <ele>1202.27</ele>
        <time>2013-07-08T09:07:25Z</time>
      </trkpt>
      <trkpt lat="45.33556" lon="4.50543">
        <ele>1203.23</ele>
        <time>2013-07-08T09:07:43Z</time>
      </trkpt>
      <trkpt lat="45.33572" lon="4.50536">
        <ele>1204.19</ele>
        <time>2013-07-08T09:07:58Z</time>
      </trkpt>
      <trkpt lat="45.33592" lon="4.50532">
        <ele>1205.15</ele>
        <time>2013-07-08T09:08:17Z</time>
      </trkpt>
      <trkpt lat="45.33615" lon="4.50534">
        <ele>1205.15</ele>
        <time>2013-07-08T09:08:39Z</time>
      </trkpt>
      <trkpt lat="45.3363" lon="4.50538">
        <ele>1206.11</ele>
        <time>2013-07-08T09:08:57Z</time>
      </trkpt>
      <trkpt lat="45.33644" lon="4.50547">
        <ele>1206.59</ele>
        <time>2013-07-08T09:09:17Z</time>
      </trkpt>
      <trkpt lat="45.3366" lon="4.50553">
        <ele>1208.51</ele>
        <time>2013-07-08T09:09:35Z</time>
      </trkpt>
      <trkpt lat="45.33676" lon="4.50544">
        <ele>1210.92</ele>
        <time>2013-07-08T09:09:54Z</time>
      </trkpt>
      <trkpt lat="45.33692" lon="4.50538">
        <ele>1213.32</ele>
        <time>2013-07-08T09:10:14Z</time>
      </trkpt>
      <trkpt lat="45.33707" lon="4.50532">
        <ele>1216.21</ele>
        <time>2013-07-08T09:10:31Z</time>
      </trkpt>
      <trkpt lat="45.33718" lon="4.50521">
        <ele>1218.61</ele>
        <time>2013-07-08T09:10:48Z</time>
      </trkpt>
      <trkpt lat="45.3373" lon="4.50508">
        <ele>1220.53</ele>
        <time>2013-07-08T09:11:04Z</time>
      </trkpt>
      <trkpt lat="45.33741" lon="4.50499">
        <ele>1221.49</ele>
        <time>2013-07-08T09:11:20Z</time>
      </trkpt>
      <trkpt lat="45.33756" lon="4.50503">
        <ele>1223.42</ele>
        <time>2013-07-08T09:11:35Z</time>
      </trkpt>
      <trkpt lat="45.3377" lon="4.50514">
        <ele>1225.34</ele>
        <time>2013-07-08T09:11:54Z</time>
      </trkpt>
      <trkpt lat="45.33774" lon="4.50514">
        <ele>1225.34</ele>
        <time>2013-07-08T09:12:17Z</time>
      </trkpt>
      <trkpt lat="45.33775" lon="4.50519">
        <ele>1225.82</ele>
        <time>2013-07-08T09:12:38Z</time>
      </trkpt>
      <trkpt lat="45.33779" lon="4.50541">
        <ele>1227.26</ele>
        <time>2013-07-08T09:13:05Z</time>
      </trkpt>
      <trkpt lat="45.33783" lon="4.50566">
        <ele>1229.66</ele>
        <time>2013-07-08T09:13:25Z</time>
      </trkpt>
      <trkpt lat="45.33788" lon="4.50591">
        <ele>1231.11</ele>
        <time>2013-07-08T09:13:44Z</time>
      </trkpt>
      <trkpt lat="45.33791" lon="4.50616">
        <ele>1233.03</ele>
        <time>2013-07-08T09:14:02Z</time>
      </trkpt>
      <trkpt lat="45.33795" lon="4.50642">
        <ele>1234.95</ele>
        <time>2013-07-08T09:14:22Z</time>
      </trkpt>
      <trkpt lat="45.33797" lon="4.5066">
        <ele>1235.91</ele>
        <time>2013-07-08T09:14:36Z</time>
      </trkpt>
      <trkpt lat="45.33799" lon="4.50676">
        <ele>1236.87</ele>
        <time>2013-07-08T09:14:51Z</time>
      </trkpt>
      <trkpt lat="45.33797" lon="4.50701">
        <ele>1238.8</ele>
        <time>2013-07-08T09:15:08Z</time>
      </trkpt>
      <trkpt lat="45.33797" lon="4.50723">
        <ele>1240.24</ele>
        <time>2013-07-08T09:15:23Z</time>
      </trkpt>
      <trkpt lat="45.33801" lon="4.50743">
        <ele>1241.68</ele>
        <time>2013-07-08T09:15:37Z</time>
      </trkpt>
      <trkpt lat="45.33805" lon="4.50764">
        <ele>1243.6</ele>
        <time>2013-07-08T09:15:54Z</time>
      </trkpt>
      <trkpt lat="45.33808" lon="4.50786">
        <ele>1245.04</ele>
        <time>2013-07-08T09:16:09Z</time>
      </trkpt>
      <trkpt lat="45.33811" lon="4.50806">
        <ele>1246.01</ele>
        <time>2013-07-08T09:16:25Z</time>
      </trkpt>
      <trkpt lat="45.33811" lon="4.50831">
        <ele>1246.49</ele>
        <time>2013-07-08T09:16:42Z</time>
      </trkpt>
      <trkpt lat="45.33813" lon="4.50854">
        <ele>1246.97</ele>
        <time>2013-07-08T09:16:57Z</time>
      </trkpt>
      <trkpt lat="45.33812" lon="4.50888">
        <ele>1245.04</ele>
        <time>2013-07-08T09:17:17Z</time>
      </trkpt>
      <trkpt lat="45.33807" lon="4.50917">
        <ele>1243.12</ele>
        <time>2013-07-08T09:17:35Z</time>
      </trkpt>
      <trkpt lat="45.33808" lon="4.50932">
        <ele>1242.16</ele>
        <time>2013-07-08T09:17:44Z</time>
      </trkpt>
      <trkpt lat="45.33814" lon="4.50957">
        <ele>1241.68</ele>
        <time>2013-07-08T09:18:03Z</time>
      </trkpt>
      <trkpt lat="45.33817" lon="4.50965">
        <ele>1242.16</ele>
        <time>2013-07-08T09:18:33Z</time>
      </trkpt>
      <trkpt lat="45.3383" lon="4.50985">
        <ele>1242.64</ele>
        <time>2013-07-08T09:18:53Z</time>
      </trkpt>
      <trkpt lat="45.33845" lon="4.50989">
        <ele>1245.53</ele>
        <time>2013-07-08T09:19:10Z</time>
      </trkpt>
      <trkpt lat="45.33861" lon="4.50998">
        <ele>1247.45</ele>
        <time>2013-07-08T09:19:27Z</time>
      </trkpt>
      <trkpt lat="45.33874" lon="4.51009">
        <ele>1249.37</ele>
        <time>2013-07-08T09:19:43Z</time>
      </trkpt>
      <trkpt lat="45.33886" lon="4.51023">
        <ele>1250.81</ele>
        <time>2013-07-08T09:19:58Z</time>
      </trkpt>
      <trkpt lat="45.33898" lon="4.51034">
        <ele>1252.25</ele>
        <time>2013-07-08T09:20:14Z</time>
      </trkpt>
      <trkpt lat="45.33897" lon="4.51049">
        <ele>1252.25</ele>
        <time>2013-07-08T09:20:29Z</time>
      </trkpt>
      <trkpt lat="45.33894" lon="4.51047">
        <ele>1250.81</ele>
        <time>2013-07-08T09:20:42Z</time>
      </trkpt>
      <trkpt lat="45.33894" lon="4.51043">
        <ele>1250.81</ele>
        <time>2013-07-08T09:21:01Z</time>
      </trkpt>
      <trkpt lat="45.33892" lon="4.51033">
        <ele>1250.81</ele>
        <time>2013-07-08T09:21:19Z</time>
      </trkpt>
      <trkpt lat="45.33897" lon="4.51039">
        <ele>1250.33</ele>
        <time>2013-07-08T09:21:37Z</time>
      </trkpt>
      <trkpt lat="45.33896" lon="4.51038">
        <ele>1250.33</ele>
        <time>2013-07-08T09:22:00Z</time>
      </trkpt>
      <trkpt lat="45.33895" lon="4.51037">
        <ele>1250.33</ele>
        <time>2013-07-08T09:22:20Z</time>
      </trkpt>
      <trkpt lat="45.33895" lon="4.51038">
        <ele>1251.77</ele>
        <time>2013-07-08T09:22:36Z</time>
      </trkpt>
      <trkpt lat="45.33899" lon="4.51033">
        <ele>1251.77</ele>
        <time>2013-07-08T09:22:57Z</time>
      </trkpt>
      <trkpt lat="45.33902" lon="4.51033">
        <ele>1251.77</ele>
        <time>2013-07-08T09:23:21Z</time>
      </trkpt>
      <trkpt lat="45.33902" lon="4.51033">
        <ele>1251.77</ele>
        <time>2013-07-08T09:23:44Z</time>
      </trkpt>
      <trkpt lat="45.33897" lon="4.51033">
        <ele>1252.25</ele>
        <time>2013-07-08T09:24:14Z</time>
      </trkpt>
      <trkpt lat="45.33892" lon="4.5103">
        <ele>1252.74</ele>
        <time>2013-07-08T09:24:37Z</time>
      </trkpt>
      <trkpt lat="45.33887" lon="4.51024">
        <ele>1252.74</ele>
        <time>2013-07-08T09:25:04Z</time>
      </trkpt>
      <trkpt lat="45.33892" lon="4.51027">
        <ele>1253.22</ele>
        <time>2013-07-08T09:25:25Z</time>
      </trkpt>
      <trkpt lat="45.33897" lon="4.51033">
        <ele>1253.22</ele>
        <time>2013-07-08T09:25:54Z</time>
      </trkpt>
      <trkpt lat="45.33895" lon="4.51029">
        <ele>1253.22</ele>
        <time>2013-07-08T09:26:29Z</time>
      </trkpt>
      <trkpt lat="45.33895" lon="4.51025">
        <ele>1253.22</ele>
        <time>2013-07-08T09:26:51Z</time>
      </trkpt>
      <trkpt lat="45.33889" lon="4.51024">
        <ele>1253.22</ele>
        <time>2013-07-08T09:27:13Z</time>
      </trkpt>
      <trkpt lat="45.33892" lon="4.5102">
        <ele>1253.7</ele>
        <time>2013-07-08T09:27:36Z</time>
      </trkpt>
      <trkpt lat="45.33895" lon="4.5102">
        <ele>1254.18</ele>
        <time>2013-07-08T09:27:59Z</time>
      </trkpt>
      <trkpt lat="45.33889" lon="4.51016">
        <ele>1254.18</ele>
        <time>2013-07-08T09:28:19Z</time>
      </trkpt>
      <trkpt lat="45.3389" lon="4.51017">
        <ele>1255.14</ele>
        <time>2013-07-08T09:28:44Z</time>
      </trkpt>
      <trkpt lat="45.33893" lon="4.51014">
        <ele>1255.14</ele>
        <time>2013-07-08T09:29:12Z</time>
      </trkpt>
      <trkpt lat="45.33887" lon="4.51031">
        <ele>1255.62</ele>
        <time>2013-07-08T09:29:37Z</time>
      </trkpt>
      <trkpt lat="45.33885" lon="4.51032">
        <ele>1256.1</ele>
        <time>2013-07-08T09:30:01Z</time>
      </trkpt>
      <trkpt lat="45.33893" lon="4.51036">
        <ele>1256.1</ele>
        <time>2013-07-08T09:30:27Z</time>
      </trkpt>
      <trkpt lat="45.33897" lon="4.51035">
        <ele>1255.62</ele>
        <time>2013-07-08T09:30:53Z</time>
      </trkpt>
      <trkpt lat="45.33902" lon="4.51041">
        <ele>1256.1</ele>
        <time>2013-07-08T09:31:23Z</time>
      </trkpt>
      <trkpt lat="45.33903" lon="4.51037">
        <ele>1256.1</ele>
        <time>2013-07-08T09:31:46Z</time>
      </trkpt>
      <trkpt lat="45.339" lon="4.51035">
        <ele>1256.58</ele>
        <time>2013-07-08T09:32:12Z</time>
      </trkpt>
      <trkpt lat="45.33899" lon="4.51033">
        <ele>1256.58</ele>
        <time>2013-07-08T09:32:34Z</time>
      </trkpt>
      <trkpt lat="45.3389" lon="4.51028">
        <ele>1256.58</ele>
        <time>2013-07-08T09:32:59Z</time>
      </trkpt>
      <trkpt lat="45.33896" lon="4.5104">
        <ele>1256.58</ele>
        <time>2013-07-08T09:33:27Z</time>
      </trkpt>
      <trkpt lat="45.33895" lon="4.51037">
        <ele>1256.58</ele>
        <time>2013-07-08T09:33:51Z</time>
      </trkpt>
      <trkpt lat="45.33896" lon="4.51029">
        <ele>1256.58</ele>
        <time>2013-07-08T09:34:22Z</time>
      </trkpt>
      <trkpt lat="45.33895" lon="4.51032">
        <ele>1257.06</ele>
        <time>2013-07-08T09:34:47Z</time>
      </trkpt>
      <trkpt lat="45.33897" lon="4.51034">
        <ele>1257.06</ele>
        <time>2013-07-08T09:35:11Z</time>
      </trkpt>
      <trkpt lat="45.33899" lon="4.51035">
        <ele>1257.06</ele>
        <time>2013-07-08T09:35:38Z</time>
      </trkpt>
      <trkpt lat="45.33896" lon="4.5103">
        <ele>1257.06</ele>
        <time>2013-07-08T09:36:05Z</time>
      </trkpt>
      <trkpt lat="45.33896" lon="4.51029">
        <ele>1257.54</ele>
        <time>2013-07-08T09:36:38Z</time>
      </trkpt>
      <trkpt lat="45.33896" lon="4.51033">
        <ele>1257.54</ele>
        <time>2013-07-08T09:37:09Z</time>
      </trkpt>
      <trkpt lat="45.339" lon="4.51034">
        <ele>1257.54</ele>
        <time>2013-07-08T09:37:31Z</time>
      </trkpt>
      <trkpt lat="45.339" lon="4.51035">
        <ele>1258.02</ele>
        <time>2013-07-08T09:37:48Z</time>
      </trkpt>
      <trkpt lat="45.33894" lon="4.51037">
        <ele>1258.5</ele>
        <time>2013-07-08T09:38:08Z</time>
      </trkpt>
      <trkpt lat="45.33893" lon="4.51039">
        <ele>1258.02</ele>
        <time>2013-07-08T09:38:24Z</time>
      </trkpt>
      <trkpt lat="45.33892" lon="4.51035">
        <ele>1258.02</ele>
        <time>2013-07-08T09:38:46Z</time>
      </trkpt>
      <trkpt lat="45.33895" lon="4.51039">
        <ele>1258.98</ele>
        <time>2013-07-08T09:39:04Z</time>
      </trkpt>
      <trkpt lat="45.33892" lon="4.51045">
        <ele>1258.5</ele>
        <time>2013-07-08T09:39:33Z</time>
      </trkpt>
      <trkpt lat="45.33894" lon="4.51048">
        <ele>1258.5</ele>
        <time>2013-07-08T09:39:50Z</time>
      </trkpt>
      <trkpt lat="45.33899" lon="4.51052">
        <ele>1258.98</ele>
        <time>2013-07-08T09:40:04Z</time>
      </trkpt>
      <trkpt lat="45.33891" lon="4.51055">
        <ele>1258.98</ele>
        <time>2013-07-08T09:40:37Z</time>
      </trkpt>
      <trkpt lat="45.33894" lon="4.51039">
        <ele>1258.98</ele>
        <time>2013-07-08T09:40:52Z</time>
      </trkpt>
      <trkpt lat="45.33903" lon="4.51029">
        <ele>1259.94</ele>
        <time>2013-07-08T09:41:08Z</time>
      </trkpt>
      <trkpt lat="45.33917" lon="4.51041">
        <ele>1261.87</ele>
        <time>2013-07-08T09:41:25Z</time>
      </trkpt>
      <trkpt lat="45.3393" lon="4.51049">
        <ele>1263.31</ele>
        <time>2013-07-08T09:41:42Z</time>
      </trkpt>
      <trkpt lat="45.33942" lon="4.51068">
        <ele>1264.75</ele>
        <time>2013-07-08T09:42:01Z</time>
      </trkpt>
      <trkpt lat="45.33954" lon="4.51066">
        <ele>1266.67</ele>
        <time>2013-07-08T09:42:17Z</time>
      </trkpt>
      <trkpt lat="45.33964" lon="4.51053">
        <ele>1268.6</ele>
        <time>2013-07-08T09:42:33Z</time>
      </trkpt>
      <trkpt lat="45.3398" lon="4.51056">
        <ele>1271</ele>
        <time>2013-07-08T09:42:50Z</time>
      </trkpt>
      <trkpt lat="45.33993" lon="4.51054">
        <ele>1273.4</ele>
        <time>2013-07-08T09:43:07Z</time>
      </trkpt>
      <trkpt lat="45.33997" lon="4.51066">
        <ele>1274.36</ele>
        <time>2013-07-08T09:43:20Z</time>
      </trkpt>
      <trkpt lat="45.34007" lon="4.51075">
        <ele>1275.33</ele>
        <time>2013-07-08T09:43:35Z</time>
      </trkpt>
      <trkpt lat="45.34021" lon="4.51085">
        <ele>1275.81</ele>
        <time>2013-07-08T09:43:50Z</time>
      </trkpt>
      <trkpt lat="45.34029" lon="4.51096">
        <ele>1276.29</ele>
        <time>2013-07-08T09:44:06Z</time>
      </trkpt>
      <trkpt lat="45.34029" lon="4.51106">
        <ele>1275.81</ele>
        <time>2013-07-08T09:44:31Z</time>
      </trkpt>
      <trkpt lat="45.3403" lon="4.51127">
        <ele>1277.25</ele>
        <time>2013-07-08T09:44:47Z</time>
      </trkpt>
      <trkpt lat="45.34033" lon="4.51153">
        <ele>1277.25</ele>
        <time>2013-07-08T09:45:05Z</time>
      </trkpt>
      <trkpt lat="45.34037" lon="4.51176">
        <ele>1277.25</ele>
        <time>2013-07-08T09:45:21Z</time>
      </trkpt>
      <trkpt lat="45.34047" lon="4.51171">
        <ele>1278.21</ele>
        <time>2013-07-08T09:45:38Z</time>
      </trkpt>
      <trkpt lat="45.34038" lon="4.51186">
        <ele>1277.25</ele>
        <time>2013-07-08T09:45:54Z</time>
      </trkpt>
      <trkpt lat="45.34047" lon="4.51211">
        <ele>1276.29</ele>
        <time>2013-07-08T09:46:12Z</time>
      </trkpt>
      <trkpt lat="45.34048" lon="4.51214">
        <ele>1276.29</ele>
        <time>2013-07-08T09:46:14Z</time>
      </trkpt>
      <trkpt lat="45.3406" lon="4.5124">
        <ele>1273.88</ele>
        <time>2013-07-08T09:46:33Z</time>
      </trkpt>
      <trkpt lat="45.3406" lon="4.51242">
        <ele>1273.88</ele>
        <time>2013-07-08T09:46:35Z</time>
      </trkpt>
      <trkpt lat="45.34071" lon="4.51265">
        <ele>1272.44</ele>
        <time>2013-07-08T09:46:52Z</time>
      </trkpt>
      <trkpt lat="45.3408" lon="4.51289">
        <ele>1271</ele>
        <time>2013-07-08T09:47:10Z</time>
      </trkpt>
      <trkpt lat="45.34094" lon="4.51309">
        <ele>1269.56</ele>
        <time>2013-07-08T09:47:27Z</time>
      </trkpt>
      <trkpt lat="45.34104" lon="4.51327">
        <ele>1269.08</ele>
        <time>2013-07-08T09:47:40Z</time>
      </trkpt>
      <trkpt lat="45.34116" lon="4.51352">
        <ele>1267.64</ele>
        <time>2013-07-08T09:47:57Z</time>
      </trkpt>
      <trkpt lat="45.34124" lon="4.51376">
        <ele>1266.67</ele>
        <time>2013-07-08T09:48:14Z</time>
      </trkpt>
      <trkpt lat="45.34136" lon="4.514">
        <ele>1266.19</ele>
        <time>2013-07-08T09:48:33Z</time>
      </trkpt>
      <trkpt lat="45.34148" lon="4.51422">
        <ele>1265.71</ele>
        <time>2013-07-08T09:48:49Z</time>
      </trkpt>
      <trkpt lat="45.34154" lon="4.51449">
        <ele>1266.19</ele>
        <time>2013-07-08T09:49:06Z</time>
      </trkpt>
      <trkpt lat="45.34158" lon="4.51462">
        <ele>1265.71</ele>
        <time>2013-07-08T09:49:14Z</time>
      </trkpt>
      <trkpt lat="45.34162" lon="4.51491">
        <ele>1265.71</ele>
        <time>2013-07-08T09:49:31Z</time>
      </trkpt>
      <trkpt lat="45.34173" lon="4.51517">
        <ele>1266.67</ele>
        <time>2013-07-08T09:49:49Z</time>
      </trkpt>
      <trkpt lat="45.3418" lon="4.51538">
        <ele>1267.16</ele>
        <time>2013-07-08T09:50:05Z</time>
      </trkpt>
      <trkpt lat="45.34189" lon="4.51561">
        <ele>1268.12</ele>
        <time>2013-07-08T09:50:22Z</time>
      </trkpt>
      <trkpt lat="45.34196" lon="4.5158">
        <ele>1268.6</ele>
        <time>2013-07-08T09:50:36Z</time>
      </trkpt>
      <trkpt lat="45.34203" lon="4.51598">
        <ele>1269.08</ele>
        <time>2013-07-08T09:50:49Z</time>
      </trkpt>
      <trkpt lat="45.34211" lon="4.51621">
        <ele>1270.04</ele>
        <time>2013-07-08T09:51:04Z</time>
      </trkpt>
      <trkpt lat="45.34213" lon="4.51633">
        <ele>1270.04</ele>
        <time>2013-07-08T09:51:11Z</time>
      </trkpt>
      <trkpt lat="45.34219" lon="4.51655">
        <ele>1270.52</ele>
        <time>2013-07-08T09:51:26Z</time>
      </trkpt>
      <trkpt lat="45.34225" lon="4.51675">
        <ele>1271</ele>
        <time>2013-07-08T09:51:40Z</time>
      </trkpt>
      <trkpt lat="45.3423" lon="4.51701">
        <ele>1271</ele>
        <time>2013-07-08T09:51:59Z</time>
      </trkpt>
      <trkpt lat="45.3423" lon="4.51722">
        <ele>1271</ele>
        <time>2013-07-08T09:52:14Z</time>
      </trkpt>
      <trkpt lat="45.34235" lon="4.51752">
        <ele>1270.52</ele>
        <time>2013-07-08T09:52:30Z</time>
      </trkpt>
      <trkpt lat="45.34238" lon="4.51776">
        <ele>1271.48</ele>
        <time>2013-07-08T09:52:44Z</time>
      </trkpt>
      <trkpt lat="45.3424" lon="4.5179">
        <ele>1271.96</ele>
        <time>2013-07-08T09:53:01Z</time>
      </trkpt>
      <trkpt lat="45.34241" lon="4.5179">
        <ele>1271.48</ele>
        <time>2013-07-08T09:53:16Z</time>
      </trkpt>
      <trkpt lat="45.34243" lon="4.51791">
        <ele>1271.96</ele>
        <time>2013-07-08T09:53:38Z</time>
      </trkpt>
      <trkpt lat="45.34238" lon="4.51796">
        <ele>1271.48</ele>
        <time>2013-07-08T09:54:05Z</time>
      </trkpt>
      <trkpt lat="45.34237" lon="4.51805">
        <ele>1271.48</ele>
        <time>2013-07-08T09:54:25Z</time>
      </trkpt>
      <trkpt lat="45.34233" lon="4.51833">
        <ele>1271.96</ele>
        <time>2013-07-08T09:54:38Z</time>
      </trkpt>
      <trkpt lat="45.34228" lon="4.51845">
        <ele>1271.48</ele>
        <time>2013-07-08T09:54:48Z</time>
      </trkpt>
      <trkpt lat="45.34217" lon="4.51872">
        <ele>1271</ele>
        <time>2013-07-08T09:55:06Z</time>
      </trkpt>
      <trkpt lat="45.34214" lon="4.51892">
        <ele>1270.52</ele>
        <time>2013-07-08T09:55:19Z</time>
      </trkpt>
      <trkpt lat="45.34207" lon="4.51925">
        <ele>1270.52</ele>
        <time>2013-07-08T09:55:36Z</time>
      </trkpt>
      <trkpt lat="45.342" lon="4.5195">
        <ele>1269.56</ele>
        <time>2013-07-08T09:55:52Z</time>
      </trkpt>
      <trkpt lat="45.34193" lon="4.51972">
        <ele>1269.56</ele>
        <time>2013-07-08T09:56:07Z</time>
      </trkpt>
      <trkpt lat="45.34188" lon="4.52001">
        <ele>1269.08</ele>
        <time>2013-07-08T09:56:23Z</time>
      </trkpt>
      <trkpt lat="45.34184" lon="4.52032">
        <ele>1268.6</ele>
        <time>2013-07-08T09:56:41Z</time>
      </trkpt>
      <trkpt lat="45.34175" lon="4.52059">
        <ele>1269.56</ele>
        <time>2013-07-08T09:57:00Z</time>
      </trkpt>
      <trkpt lat="45.34167" lon="4.52086">
        <ele>1270.04</ele>
        <time>2013-07-08T09:57:17Z</time>
      </trkpt>
      <trkpt lat="45.34165" lon="4.52092">
        <ele>1269.56</ele>
        <time>2013-07-08T09:57:20Z</time>
      </trkpt>
      <trkpt lat="45.34156" lon="4.52118">
        <ele>1270.04</ele>
        <time>2013-07-08T09:57:38Z</time>
      </trkpt>
      <trkpt lat="45.34154" lon="4.5213">
        <ele>1271</ele>
        <time>2013-07-08T09:57:45Z</time>
      </trkpt>
      <trkpt lat="45.34148" lon="4.52157">
        <ele>1271.48</ele>
        <time>2013-07-08T09:58:02Z</time>
      </trkpt>
      <trkpt lat="45.34139" lon="4.5218">
        <ele>1271.96</ele>
        <time>2013-07-08T09:58:18Z</time>
      </trkpt>
      <trkpt lat="45.34134" lon="4.52186">
        <ele>1271.96</ele>
        <time>2013-07-08T09:58:22Z</time>
      </trkpt>
      <trkpt lat="45.34118" lon="4.52201">
        <ele>1270.04</ele>
        <time>2013-07-08T09:58:40Z</time>
      </trkpt>
      <trkpt lat="45.34103" lon="4.52224">
        <ele>1269.08</ele>
        <time>2013-07-08T09:58:56Z</time>
      </trkpt>
      <trkpt lat="45.34091" lon="4.52251">
        <ele>1269.08</ele>
        <time>2013-07-08T09:59:14Z</time>
      </trkpt>
      <trkpt lat="45.34077" lon="4.52273">
        <ele>1269.08</ele>
        <time>2013-07-08T09:59:30Z</time>
      </trkpt>
      <trkpt lat="45.34065" lon="4.52296">
        <ele>1269.08</ele>
        <time>2013-07-08T09:59:46Z</time>
      </trkpt>
      <trkpt lat="45.34056" lon="4.52319">
        <ele>1269.08</ele>
        <time>2013-07-08T10:00:01Z</time>
      </trkpt>
      <trkpt lat="45.3404" lon="4.52346">
        <ele>1269.56</ele>
        <time>2013-07-08T10:00:21Z</time>
      </trkpt>
      <trkpt lat="45.3402" lon="4.52369">
        <ele>1270.04</ele>
        <time>2013-07-08T10:00:42Z</time>
      </trkpt>
      <trkpt lat="45.34005" lon="4.52389">
        <ele>1270.04</ele>
        <time>2013-07-08T10:00:59Z</time>
      </trkpt>
      <trkpt lat="45.33992" lon="4.52405">
        <ele>1270.52</ele>
        <time>2013-07-08T10:01:16Z</time>
      </trkpt>
      <trkpt lat="45.33978" lon="4.52424">
        <ele>1270.52</ele>
        <time>2013-07-08T10:01:32Z</time>
      </trkpt>
      <trkpt lat="45.33965" lon="4.5244">
        <ele>1271</ele>
        <time>2013-07-08T10:01:46Z</time>
      </trkpt>
      <trkpt lat="45.33956" lon="4.52453">
        <ele>1271</ele>
        <time>2013-07-08T10:01:57Z</time>
      </trkpt>
      <trkpt lat="45.33943" lon="4.52468">
        <ele>1271.48</ele>
        <time>2013-07-08T10:02:13Z</time>
      </trkpt>
      <trkpt lat="45.33926" lon="4.52484">
        <ele>1271.48</ele>
        <time>2013-07-08T10:02:30Z</time>
      </trkpt>
      <trkpt lat="45.33918" lon="4.52497">
        <ele>1272.44</ele>
        <time>2013-07-08T10:02:42Z</time>
      </trkpt>
      <trkpt lat="45.33908" lon="4.52519">
        <ele>1273.4</ele>
        <time>2013-07-08T10:02:59Z</time>
      </trkpt>
      <trkpt lat="45.33895" lon="4.52536">
        <ele>1272.92</ele>
        <time>2013-07-08T10:03:15Z</time>
      </trkpt>
      <trkpt lat="45.33892" lon="4.5254">
        <ele>1273.4</ele>
        <time>2013-07-08T10:03:29Z</time>
      </trkpt>
      <trkpt lat="45.3389" lon="4.52543">
        <ele>1272.92</ele>
        <time>2013-07-08T10:03:55Z</time>
      </trkpt>
      <trkpt lat="45.33877" lon="4.52567">
        <ele>1272.44</ele>
        <time>2013-07-08T10:04:12Z</time>
      </trkpt>
      <trkpt lat="45.33862" lon="4.52587">
        <ele>1272.44</ele>
        <time>2013-07-08T10:04:29Z</time>
      </trkpt>
      <trkpt lat="45.3385" lon="4.52604">
        <ele>1272.44</ele>
        <time>2013-07-08T10:04:44Z</time>
      </trkpt>
      <trkpt lat="45.33838" lon="4.5263">
        <ele>1272.92</ele>
        <time>2013-07-08T10:05:03Z</time>
      </trkpt>
      <trkpt lat="45.33833" lon="4.52652">
        <ele>1272.44</ele>
        <time>2013-07-08T10:05:20Z</time>
      </trkpt>
      <trkpt lat="45.33839" lon="4.52655">
        <ele>1272.92</ele>
        <time>2013-07-08T10:05:48Z</time>
      </trkpt>
      <trkpt lat="45.33851" lon="4.52671">
        <ele>1275.33</ele>
        <time>2013-07-08T10:06:06Z</time>
      </trkpt>
      <trkpt lat="45.3386" lon="4.5269">
        <ele>1276.77</ele>
        <time>2013-07-08T10:06:20Z</time>
      </trkpt>
      <trkpt lat="45.33867" lon="4.52708">
        <ele>1278.21</ele>
        <time>2013-07-08T10:06:36Z</time>
      </trkpt>
      <trkpt lat="45.33876" lon="4.52721">
        <ele>1279.65</ele>
        <time>2013-07-08T10:06:51Z</time>
      </trkpt>
      <trkpt lat="45.33886" lon="4.52736">
        <ele>1281.09</ele>
        <time>2013-07-08T10:07:07Z</time>
      </trkpt>
      <trkpt lat="45.339" lon="4.5275">
        <ele>1282.06</ele>
        <time>2013-07-08T10:07:24Z</time>
      </trkpt>
      <trkpt lat="45.33917" lon="4.52767">
        <ele>1283.02</ele>
        <time>2013-07-08T10:07:40Z</time>
      </trkpt>
      <trkpt lat="45.33936" lon="4.52775">
        <ele>1283.5</ele>
        <time>2013-07-08T10:07:58Z</time>
      </trkpt>
      <trkpt lat="45.33951" lon="4.5277">
        <ele>1283.5</ele>
        <time>2013-07-08T10:08:15Z</time>
      </trkpt>
      <trkpt lat="45.3397" lon="4.52762">
        <ele>1283.98</ele>
        <time>2013-07-08T10:08:31Z</time>
      </trkpt>
      <trkpt lat="45.33991" lon="4.52755">
        <ele>1284.46</ele>
        <time>2013-07-08T10:08:50Z</time>
      </trkpt>
      <trkpt lat="45.34011" lon="4.5275">
        <ele>1284.46</ele>
        <time>2013-07-08T10:09:09Z</time>
      </trkpt>
      <trkpt lat="45.34029" lon="4.52743">
        <ele>1284.46</ele>
        <time>2013-07-08T10:09:27Z</time>
      </trkpt>
      <trkpt lat="45.3405" lon="4.52735">
        <ele>1284.46</ele>
        <time>2013-07-08T10:09:46Z</time>
      </trkpt>
      <trkpt lat="45.34069" lon="4.52728">
        <ele>1284.46</ele>
        <time>2013-07-08T10:10:04Z</time>
      </trkpt>
      <trkpt lat="45.34085" lon="4.52722">
        <ele>1284.94</ele>
        <time>2013-07-08T10:10:20Z</time>
      </trkpt>
      <trkpt lat="45.34101" lon="4.52717">
        <ele>1285.42</ele>
        <time>2013-07-08T10:10:37Z</time>
      </trkpt>
      <trkpt lat="45.34117" lon="4.52709">
        <ele>1286.38</ele>
        <time>2013-07-08T10:10:54Z</time>
      </trkpt>
      <trkpt lat="45.3413" lon="4.52702">
        <ele>1287.82</ele>
        <time>2013-07-08T10:11:08Z</time>
      </trkpt>
      <trkpt lat="45.34146" lon="4.527">
        <ele>1289.27</ele>
        <time>2013-07-08T10:11:23Z</time>
      </trkpt>
      <trkpt lat="45.34148" lon="4.5271">
        <ele>1288.78</ele>
        <time>2013-07-08T10:11:37Z</time>
      </trkpt>
      <trkpt lat="45.34145" lon="4.52714">
        <ele>1289.27</ele>
        <time>2013-07-08T10:12:11Z</time>
      </trkpt>
      <trkpt lat="45.34161" lon="4.52708">
        <ele>1290.71</ele>
        <time>2013-07-08T10:12:27Z</time>
      </trkpt>
      <trkpt lat="45.34166" lon="4.52708">
        <ele>1290.71</ele>
        <time>2013-07-08T10:12:31Z</time>
      </trkpt>
      <trkpt lat="45.34186" lon="4.52701">
        <ele>1292.15</ele>
        <time>2013-07-08T10:12:50Z</time>
      </trkpt>
      <trkpt lat="45.34202" lon="4.52702">
        <ele>1293.11</ele>
        <time>2013-07-08T10:13:05Z</time>
      </trkpt>
      <trkpt lat="45.34216" lon="4.5271">
        <ele>1292.15</ele>
        <time>2013-07-08T10:13:19Z</time>
      </trkpt>
      <trkpt lat="45.3423" lon="4.52717">
        <ele>1292.15</ele>
        <time>2013-07-08T10:13:32Z</time>
      </trkpt>
      <trkpt lat="45.34236" lon="4.52719">
        <ele>1292.15</ele>
        <time>2013-07-08T10:13:38Z</time>
      </trkpt>
      <trkpt lat="45.34255" lon="4.5272">
        <ele>1293.11</ele>
        <time>2013-07-08T10:13:56Z</time>
      </trkpt>
      <trkpt lat="45.3427" lon="4.52725">
        <ele>1293.59</ele>
        <time>2013-07-08T10:14:11Z</time>
      </trkpt>
      <trkpt lat="45.34281" lon="4.52729">
        <ele>1294.55</ele>
        <time>2013-07-08T10:14:22Z</time>
      </trkpt>
      <trkpt lat="45.34305" lon="4.52736">
        <ele>1294.07</ele>
        <time>2013-07-08T10:14:44Z</time>
      </trkpt>
      <trkpt lat="45.34325" lon="4.52753">
        <ele>1293.59</ele>
        <time>2013-07-08T10:15:04Z</time>
      </trkpt>
      <trkpt lat="45.34343" lon="4.5277">
        <ele>1293.59</ele>
        <time>2013-07-08T10:15:24Z</time>
      </trkpt>
      <trkpt lat="45.34362" lon="4.52787">
        <ele>1293.59</ele>
        <time>2013-07-08T10:15:45Z</time>
      </trkpt>
      <trkpt lat="45.34378" lon="4.52797">
        <ele>1294.07</ele>
        <time>2013-07-08T10:16:04Z</time>
      </trkpt>
      <trkpt lat="45.34381" lon="4.52797">
        <ele>1293.59</ele>
        <time>2013-07-08T10:16:18Z</time>
      </trkpt>
      <trkpt lat="45.3438" lon="4.52798">
        <ele>1293.59</ele>
        <time>2013-07-08T10:16:37Z</time>
      </trkpt>
      <trkpt lat="45.34387" lon="4.52795">
        <ele>1294.07</ele>
        <time>2013-07-08T10:16:55Z</time>
      </trkpt>
      <trkpt lat="45.34416" lon="4.52796">
        <ele>1294.55</ele>
        <time>2013-07-08T10:17:20Z</time>
      </trkpt>
      <trkpt lat="45.34438" lon="4.52796">
        <ele>1294.55</ele>
        <time>2013-07-08T10:17:39Z</time>
      </trkpt>
      <trkpt lat="45.34458" lon="4.52796">
        <ele>1294.55</ele>
        <time>2013-07-08T10:17:56Z</time>
      </trkpt>
      <trkpt lat="45.34477" lon="4.52799">
        <ele>1293.59</ele>
        <time>2013-07-08T10:18:13Z</time>
      </trkpt>
      <trkpt lat="45.34498" lon="4.52796">
        <ele>1291.67</ele>
        <time>2013-07-08T10:18:32Z</time>
      </trkpt>
      <trkpt lat="45.34521" lon="4.52799">
        <ele>1290.71</ele>
        <time>2013-07-08T10:18:51Z</time>
      </trkpt>
      <trkpt lat="45.34534" lon="4.52793">
        <ele>1289.75</ele>
        <time>2013-07-08T10:19:09Z</time>
      </trkpt>
      <trkpt lat="45.34548" lon="4.52783">
        <ele>1288.78</ele>
        <time>2013-07-08T10:19:26Z</time>
      </trkpt>
      <trkpt lat="45.34579" lon="4.52764">
        <ele>1287.82</ele>
        <time>2013-07-08T10:19:45Z</time>
      </trkpt>
      <trkpt lat="45.34604" lon="4.52756">
        <ele>1285.9</ele>
        <time>2013-07-08T10:20:04Z</time>
      </trkpt>
      <trkpt lat="45.34628" lon="4.52752">
        <ele>1284.46</ele>
        <time>2013-07-08T10:20:24Z</time>
      </trkpt>
      <trkpt lat="45.34649" lon="4.52756">
        <ele>1283.5</ele>
        <time>2013-07-08T10:20:41Z</time>
      </trkpt>
      <trkpt lat="45.34668" lon="4.52746">
        <ele>1283.02</ele>
        <time>2013-07-08T10:20:59Z</time>
      </trkpt>
      <trkpt lat="45.34679" lon="4.52733">
        <ele>1282.54</ele>
        <time>2013-07-08T10:21:19Z</time>
      </trkpt>
      <trkpt lat="45.34694" lon="4.52714">
        <ele>1282.06</ele>
        <time>2013-07-08T10:21:40Z</time>
      </trkpt>
      <trkpt lat="45.34708" lon="4.52694">
        <ele>1281.57</ele>
        <time>2013-07-08T10:21:58Z</time>
      </trkpt>
      <trkpt lat="45.34725" lon="4.52668">
        <ele>1281.57</ele>
        <time>2013-07-08T10:22:14Z</time>
      </trkpt>
      <trkpt lat="45.34735" lon="4.52651">
        <ele>1281.57</ele>
        <time>2013-07-08T10:22:25Z</time>
      </trkpt>
      <trkpt lat="45.34749" lon="4.5263">
        <ele>1281.09</ele>
        <time>2013-07-08T10:22:44Z</time>
      </trkpt>
      <trkpt lat="45.34755" lon="4.52622">
        <ele>1281.57</ele>
        <time>2013-07-08T10:22:58Z</time>
      </trkpt>
      <trkpt lat="45.34756" lon="4.52619">
        <ele>1280.13</ele>
        <time>2013-07-08T10:23:15Z</time>
      </trkpt>
      <trkpt lat="45.3476" lon="4.52619">
        <ele>1281.57</ele>
        <time>2013-07-08T10:23:50Z</time>
      </trkpt>
      <trkpt lat="45.34763" lon="4.52622">
        <ele>1282.06</ele>
        <time>2013-07-08T10:24:13Z</time>
      </trkpt>
      <trkpt lat="45.34765" lon="4.52623">
        <ele>1281.09</ele>
        <time>2013-07-08T10:24:23Z</time>
      </trkpt>
      <trkpt lat="45.34789" lon="4.52628">
        <ele>1282.54</ele>
        <time>2013-07-08T10:24:46Z</time>
      </trkpt>
      <trkpt lat="45.34809" lon="4.52626">
        <ele>1283.02</ele>
        <time>2013-07-08T10:25:04Z</time>
      </trkpt>
      <trkpt lat="45.34824" lon="4.52627">
        <ele>1283.98</ele>
        <time>2013-07-08T10:25:20Z</time>
      </trkpt>
      <trkpt lat="45.34842" lon="4.52628">
        <ele>1284.94</ele>
        <time>2013-07-08T10:25:35Z</time>
      </trkpt>
      <trkpt lat="45.34863" lon="4.52628">
        <ele>1287.34</ele>
        <time>2013-07-08T10:25:53Z</time>
      </trkpt>
      <trkpt lat="45.34876" lon="4.52618">
        <ele>1288.78</ele>
        <time>2013-07-08T10:26:08Z</time>
      </trkpt>
      <trkpt lat="45.34894" lon="4.52611">
        <ele>1290.71</ele>
        <time>2013-07-08T10:26:25Z</time>
      </trkpt>
      <trkpt lat="45.34911" lon="4.52609">
        <ele>1292.15</ele>
        <time>2013-07-08T10:26:43Z</time>
      </trkpt>
      <trkpt lat="45.34922" lon="4.52602">
        <ele>1293.59</ele>
        <time>2013-07-08T10:27:00Z</time>
      </trkpt>
      <trkpt lat="45.34939" lon="4.52593">
        <ele>1295.03</ele>
        <time>2013-07-08T10:27:19Z</time>
      </trkpt>
      <trkpt lat="45.34955" lon="4.52586">
        <ele>1295.99</ele>
        <time>2013-07-08T10:27:38Z</time>
      </trkpt>
      <trkpt lat="45.34973" lon="4.52577">
        <ele>1297.44</ele>
        <time>2013-07-08T10:27:57Z</time>
      </trkpt>
      <trkpt lat="45.34989" lon="4.52579">
        <ele>1297.92</ele>
        <time>2013-07-08T10:28:15Z</time>
      </trkpt>
      <trkpt lat="45.35013" lon="4.52578">
        <ele>1298.4</ele>
        <time>2013-07-08T10:28:34Z</time>
      </trkpt>
      <trkpt lat="45.35031" lon="4.52578">
        <ele>1298.88</ele>
        <time>2013-07-08T10:28:51Z</time>
      </trkpt>
      <trkpt lat="45.35045" lon="4.52581">
        <ele>1299.36</ele>
        <time>2013-07-08T10:29:03Z</time>
      </trkpt>
      <trkpt lat="45.35066" lon="4.52576">
        <ele>1299.84</ele>
        <time>2013-07-08T10:29:21Z</time>
      </trkpt>
      <trkpt lat="45.35082" lon="4.52574">
        <ele>1300.8</ele>
        <time>2013-07-08T10:29:36Z</time>
      </trkpt>
      <trkpt lat="45.35096" lon="4.52571">
        <ele>1301.28</ele>
        <time>2013-07-08T10:29:51Z</time>
      </trkpt>
      <trkpt lat="45.35115" lon="4.52575">
        <ele>1302.24</ele>
        <time>2013-07-08T10:30:12Z</time>
      </trkpt>
      <trkpt lat="45.35139" lon="4.52579">
        <ele>1302.24</ele>
        <time>2013-07-08T10:30:31Z</time>
      </trkpt>
      <trkpt lat="45.35147" lon="4.52581">
        <ele>1302.72</ele>
        <time>2013-07-08T10:30:52Z</time>
      </trkpt>
      <trkpt lat="45.35166" lon="4.52583">
        <ele>1302.72</ele>
        <time>2013-07-08T10:31:09Z</time>
      </trkpt>
      <trkpt lat="45.35184" lon="4.52583">
        <ele>1303.2</ele>
        <time>2013-07-08T10:31:27Z</time>
      </trkpt>
      <trkpt lat="45.35204" lon="4.52592">
        <ele>1303.2</ele>
        <time>2013-07-08T10:31:44Z</time>
      </trkpt>
      <trkpt lat="45.35227" lon="4.52596">
        <ele>1303.2</ele>
        <time>2013-07-08T10:32:02Z</time>
      </trkpt>
      <trkpt lat="45.35241" lon="4.52605">
        <ele>1303.2</ele>
        <time>2013-07-08T10:32:19Z</time>
      </trkpt>
      <trkpt lat="45.35259" lon="4.52617">
        <ele>1302.24</ele>
        <time>2013-07-08T10:32:37Z</time>
      </trkpt>
      <trkpt lat="45.35277" lon="4.52632">
        <ele>1300.8</ele>
        <time>2013-07-08T10:32:55Z</time>
      </trkpt>
      <trkpt lat="45.35288" lon="4.52638">
        <ele>1300.8</ele>
        <time>2013-07-08T10:33:04Z</time>
      </trkpt>
      <trkpt lat="45.35308" lon="4.5266">
        <ele>1300.32</ele>
        <time>2013-07-08T10:33:21Z</time>
      </trkpt>
      <trkpt lat="45.35322" lon="4.52668">
        <ele>1299.36</ele>
        <time>2013-07-08T10:33:37Z</time>
      </trkpt>
      <trkpt lat="45.35327" lon="4.52671">
        <ele>1299.36</ele>
        <time>2013-07-08T10:33:43Z</time>
      </trkpt>
      <trkpt lat="45.35343" lon="4.52689">
        <ele>1297.44</ele>
        <time>2013-07-08T10:34:02Z</time>
      </trkpt>
      <trkpt lat="45.35357" lon="4.52708">
        <ele>1295.51</ele>
        <time>2013-07-08T10:34:19Z</time>
      </trkpt>
      <trkpt lat="45.35373" lon="4.52724">
        <ele>1293.59</ele>
        <time>2013-07-08T10:34:36Z</time>
      </trkpt>
      <trkpt lat="45.35387" lon="4.52734">
        <ele>1290.71</ele>
        <time>2013-07-08T10:34:53Z</time>
      </trkpt>
      <trkpt lat="45.35391" lon="4.52738">
        <ele>1291.19</ele>
        <time>2013-07-08T10:34:56Z</time>
      </trkpt>
      <trkpt lat="45.35407" lon="4.52751">
        <ele>1288.78</ele>
        <time>2013-07-08T10:35:14Z</time>
      </trkpt>
      <trkpt lat="45.35427" lon="4.52755">
        <ele>1286.38</ele>
        <time>2013-07-08T10:35:30Z</time>
      </trkpt>
      <trkpt lat="45.35441" lon="4.52765">
        <ele>1284.94</ele>
        <time>2013-07-08T10:35:47Z</time>
      </trkpt>
      <trkpt lat="45.35463" lon="4.52768">
        <ele>1283.5</ele>
        <time>2013-07-08T10:36:03Z</time>
      </trkpt>
      <trkpt lat="45.35484" lon="4.5277">
        <ele>1283.02</ele>
        <time>2013-07-08T10:36:21Z</time>
      </trkpt>
      <trkpt lat="45.35506" lon="4.52777">
        <ele>1283.02</ele>
        <time>2013-07-08T10:36:38Z</time>
      </trkpt>
      <trkpt lat="45.35506" lon="4.52783">
        <ele>1282.06</ele>
        <time>2013-07-08T10:37:03Z</time>
      </trkpt>
      <trkpt lat="45.35508" lon="4.5279">
        <ele>1282.06</ele>
        <time>2013-07-08T10:37:37Z</time>
      </trkpt>
      <trkpt lat="45.35508" lon="4.52786">
        <ele>1282.54</ele>
        <time>2013-07-08T10:38:02Z</time>
      </trkpt>
      <trkpt lat="45.35508" lon="4.52781">
        <ele>1283.02</ele>
        <time>2013-07-08T10:38:24Z</time>
      </trkpt>
      <trkpt lat="45.35509" lon="4.52773">
        <ele>1283.5</ele>
        <time>2013-07-08T10:38:51Z</time>
      </trkpt>
      <trkpt lat="45.35512" lon="4.52774">
        <ele>1283.5</ele>
        <time>2013-07-08T10:39:13Z</time>
      </trkpt>
      <trkpt lat="45.35525" lon="4.52764">
        <ele>1283.5</ele>
        <time>2013-07-08T10:39:20Z</time>
      </trkpt>
      <trkpt lat="45.35528" lon="4.52767">
        <ele>1283.5</ele>
        <time>2013-07-08T10:39:38Z</time>
      </trkpt>
      <trkpt lat="45.3554" lon="4.52772">
        <ele>1283.02</ele>
        <time>2013-07-08T10:39:51Z</time>
      </trkpt>
      <trkpt lat="45.35556" lon="4.5278">
        <ele>1282.54</ele>
        <time>2013-07-08T10:40:09Z</time>
      </trkpt>
      <trkpt lat="45.35573" lon="4.52786">
        <ele>1282.54</ele>
        <time>2013-07-08T10:40:25Z</time>
      </trkpt>
      <trkpt lat="45.35591" lon="4.5279">
        <ele>1282.06</ele>
        <time>2013-07-08T10:40:41Z</time>
      </trkpt>
      <trkpt lat="45.35608" lon="4.52791">
        <ele>1282.06</ele>
        <time>2013-07-08T10:40:56Z</time>
      </trkpt>
      <trkpt lat="45.35631" lon="4.52791">
        <ele>1282.06</ele>
        <time>2013-07-08T10:41:14Z</time>
      </trkpt>
      <trkpt lat="45.35651" lon="4.52791">
        <ele>1282.54</ele>
        <time>2013-07-08T10:41:31Z</time>
      </trkpt>
      <trkpt lat="45.35665" lon="4.52784">
        <ele>1282.54</ele>
        <time>2013-07-08T10:41:42Z</time>
      </trkpt>
      <trkpt lat="45.35684" lon="4.52779">
        <ele>1281.09</ele>
        <time>2013-07-08T10:42:00Z</time>
      </trkpt>
      <trkpt lat="45.357" lon="4.52776">
        <ele>1281.09</ele>
        <time>2013-07-08T10:42:12Z</time>
      </trkpt>
      <trkpt lat="45.35717" lon="4.52768">
        <ele>1280.61</ele>
        <time>2013-07-08T10:42:28Z</time>
      </trkpt>
      <trkpt lat="45.35737" lon="4.52761">
        <ele>1278.21</ele>
        <time>2013-07-08T10:42:47Z</time>
      </trkpt>
      <trkpt lat="45.35759" lon="4.52744">
        <ele>1277.25</ele>
        <time>2013-07-08T10:43:07Z</time>
      </trkpt>
      <trkpt lat="45.35781" lon="4.52725">
        <ele>1275.33</ele>
        <time>2013-07-08T10:43:25Z</time>
      </trkpt>
      <trkpt lat="45.35803" lon="4.52714">
        <ele>1273.88</ele>
        <time>2013-07-08T10:43:44Z</time>
      </trkpt>
      <trkpt lat="45.35821" lon="4.52707">
        <ele>1272.92</ele>
        <time>2013-07-08T10:44:02Z</time>
      </trkpt>
      <trkpt lat="45.3584" lon="4.5269">
        <ele>1271</ele>
        <time>2013-07-08T10:44:22Z</time>
      </trkpt>
      <trkpt lat="45.35858" lon="4.5268">
        <ele>1269.56</ele>
        <time>2013-07-08T10:44:39Z</time>
      </trkpt>
      <trkpt lat="45.35871" lon="4.52673">
        <ele>1268.6</ele>
        <time>2013-07-08T10:44:54Z</time>
      </trkpt>
      <trkpt lat="45.35891" lon="4.52664">
        <ele>1267.16</ele>
        <time>2013-07-08T10:45:12Z</time>
      </trkpt>
      <trkpt lat="45.35912" lon="4.52653">
        <ele>1266.19</ele>
        <time>2013-07-08T10:45:31Z</time>
      </trkpt>
      <trkpt lat="45.3593" lon="4.52643">
        <ele>1265.23</ele>
        <time>2013-07-08T10:45:50Z</time>
      </trkpt>
      <trkpt lat="45.35947" lon="4.52648">
        <ele>1264.27</ele>
        <time>2013-07-08T10:46:08Z</time>
      </trkpt>
      <trkpt lat="45.35968" lon="4.52647">
        <ele>1263.79</ele>
        <time>2013-07-08T10:46:25Z</time>
      </trkpt>
      <trkpt lat="45.35985" lon="4.52638">
        <ele>1262.83</ele>
        <time>2013-07-08T10:46:43Z</time>
      </trkpt>
      <trkpt lat="45.36011" lon="4.52622">
        <ele>1259.94</ele>
        <time>2013-07-08T10:47:04Z</time>
      </trkpt>
      <trkpt lat="45.36024" lon="4.52606">
        <ele>1258.5</ele>
        <time>2013-07-08T10:47:19Z</time>
      </trkpt>
      <trkpt lat="45.36037" lon="4.52581">
        <ele>1255.62</ele>
        <time>2013-07-08T10:47:38Z</time>
      </trkpt>
      <trkpt lat="45.36055" lon="4.52563">
        <ele>1253.7</ele>
        <time>2013-07-08T10:47:57Z</time>
      </trkpt>
      <trkpt lat="45.36065" lon="4.52557">
        <ele>1252.25</ele>
        <time>2013-07-08T10:48:06Z</time>
      </trkpt>
      <trkpt lat="45.36077" lon="4.52541">
        <ele>1250.33</ele>
        <time>2013-07-08T10:48:24Z</time>
      </trkpt>
      <trkpt lat="45.36098" lon="4.52536">
        <ele>1248.89</ele>
        <time>2013-07-08T10:48:43Z</time>
      </trkpt>
      <trkpt lat="45.36107" lon="4.52534">
        <ele>1248.89</ele>
        <time>2013-07-08T10:49:05Z</time>
      </trkpt>
      <trkpt lat="45.36116" lon="4.52542">
        <ele>1249.37</ele>
        <time>2013-07-08T10:49:16Z</time>
      </trkpt>
      <trkpt lat="45.36136" lon="4.52552">
        <ele>1249.37</ele>
        <time>2013-07-08T10:49:37Z</time>
      </trkpt>
      <trkpt lat="45.36156" lon="4.52556">
        <ele>1248.89</ele>
        <time>2013-07-08T10:49:54Z</time>
      </trkpt>
      <trkpt lat="45.36174" lon="4.52559">
        <ele>1248.41</ele>
        <time>2013-07-08T10:50:10Z</time>
      </trkpt>
      <trkpt lat="45.36198" lon="4.52568">
        <ele>1247.45</ele>
        <time>2013-07-08T10:50:29Z</time>
      </trkpt>
      <trkpt lat="45.36201" lon="4.52569">
        <ele>1246.49</ele>
        <time>2013-07-08T10:50:47Z</time>
      </trkpt>
      <trkpt lat="45.36205" lon="4.52573">
        <ele>1246.49</ele>
        <time>2013-07-08T10:51:27Z</time>
      </trkpt>
      <trkpt lat="45.36207" lon="4.52567">
        <ele>1246.49</ele>
        <time>2013-07-08T10:51:53Z</time>
      </trkpt>
      <trkpt lat="45.36205" lon="4.52562">
        <ele>1245.53</ele>
        <time>2013-07-08T10:52:30Z</time>
      </trkpt>
      <trkpt lat="45.36207" lon="4.52565">
        <ele>1246.01</ele>
        <time>2013-07-08T10:52:54Z</time>
      </trkpt>
      <trkpt lat="45.36219" lon="4.52574">
        <ele>1245.04</ele>
        <time>2013-07-08T10:53:16Z</time>
      </trkpt>
      <trkpt lat="45.36241" lon="4.52574">
        <ele>1243.6</ele>
        <time>2013-07-08T10:53:35Z</time>
      </trkpt>
      <trkpt lat="45.36264" lon="4.52587">
        <ele>1241.68</ele>
        <time>2013-07-08T10:53:57Z</time>
      </trkpt>
      <trkpt lat="45.36286" lon="4.52592">
        <ele>1239.76</ele>
        <time>2013-07-08T10:54:18Z</time>
      </trkpt>
      <trkpt lat="45.36312" lon="4.52601">
        <ele>1237.83</ele>
        <time>2013-07-08T10:54:38Z</time>
      </trkpt>
      <trkpt lat="45.3633" lon="4.52604">
        <ele>1235.91</ele>
        <time>2013-07-08T10:54:54Z</time>
      </trkpt>
      <trkpt lat="45.36348" lon="4.52611">
        <ele>1233.99</ele>
        <time>2013-07-08T10:55:15Z</time>
      </trkpt>
      <trkpt lat="45.36376" lon="4.52618">
        <ele>1234.47</ele>
        <time>2013-07-08T10:55:34Z</time>
      </trkpt>
      <trkpt lat="45.36394" lon="4.52626">
        <ele>1234.95</ele>
        <time>2013-07-08T10:55:51Z</time>
      </trkpt>
      <trkpt lat="45.36414" lon="4.52633">
        <ele>1235.91</ele>
        <time>2013-07-08T10:56:10Z</time>
      </trkpt>
      <trkpt lat="45.36432" lon="4.52638">
        <ele>1236.39</ele>
        <time>2013-07-08T10:56:26Z</time>
      </trkpt>
      <trkpt lat="45.36448" lon="4.52648">
        <ele>1237.35</ele>
        <time>2013-07-08T10:56:47Z</time>
      </trkpt>
      <trkpt lat="45.36473" lon="4.52649">
        <ele>1237.35</ele>
        <time>2013-07-08T10:57:05Z</time>
      </trkpt>
      <trkpt lat="45.36475" lon="4.52648">
        <ele>1237.35</ele>
        <time>2013-07-08T10:57:07Z</time>
      </trkpt>
      <trkpt lat="45.36493" lon="4.52638">
        <ele>1236.39</ele>
        <time>2013-07-08T10:57:25Z</time>
      </trkpt>
      <trkpt lat="45.36512" lon="4.52634">
        <ele>1235.43</ele>
        <time>2013-07-08T10:57:40Z</time>
      </trkpt>
      <trkpt lat="45.36519" lon="4.52635">
        <ele>1234.95</ele>
        <time>2013-07-08T10:57:47Z</time>
      </trkpt>
      <trkpt lat="45.36539" lon="4.52655">
        <ele>1231.59</ele>
        <time>2013-07-08T10:58:06Z</time>
      </trkpt>
      <trkpt lat="45.36558" lon="4.52675">
        <ele>1229.18</ele>
        <time>2013-07-08T10:58:26Z</time>
      </trkpt>
      <trkpt lat="45.36574" lon="4.52692">
        <ele>1226.78</ele>
        <time>2013-07-08T10:58:44Z</time>
      </trkpt>
      <trkpt lat="45.36592" lon="4.52705">
        <ele>1223.42</ele>
        <time>2013-07-08T10:59:02Z</time>
      </trkpt>
      <trkpt lat="45.3661" lon="4.52715">
        <ele>1221.01</ele>
        <time>2013-07-08T10:59:19Z</time>
      </trkpt>
      <trkpt lat="45.36629" lon="4.52722">
        <ele>1219.57</ele>
        <time>2013-07-08T10:59:35Z</time>
      </trkpt>
      <trkpt lat="45.36642" lon="4.52731">
        <ele>1217.17</ele>
        <time>2013-07-08T10:59:49Z</time>
      </trkpt>
      <trkpt lat="45.36662" lon="4.52739">
        <ele>1215.72</ele>
        <time>2013-07-08T11:00:06Z</time>
      </trkpt>
      <trkpt lat="45.36686" lon="4.52752">
        <ele>1214.28</ele>
        <time>2013-07-08T11:00:26Z</time>
      </trkpt>
      <trkpt lat="45.36713" lon="4.52764">
        <ele>1212.36</ele>
        <time>2013-07-08T11:00:49Z</time>
      </trkpt>
      <trkpt lat="45.3672" lon="4.52768">
        <ele>1211.88</ele>
        <time>2013-07-08T11:00:55Z</time>
      </trkpt>
      <trkpt lat="45.36743" lon="4.52782">
        <ele>1209.96</ele>
        <time>2013-07-08T11:01:16Z</time>
      </trkpt>
      <trkpt lat="45.36765" lon="4.52792">
        <ele>1208.03</ele>
        <time>2013-07-08T11:01:34Z</time>
      </trkpt>
      <trkpt lat="45.36789" lon="4.52799">
        <ele>1208.03</ele>
        <time>2013-07-08T11:01:55Z</time>
      </trkpt>
      <trkpt lat="45.36813" lon="4.52803">
        <ele>1207.55</ele>
        <time>2013-07-08T11:02:16Z</time>
      </trkpt>
      <trkpt lat="45.36812" lon="4.528">
        <ele>1207.55</ele>
        <time>2013-07-08T11:02:34Z</time>
      </trkpt>
      <trkpt lat="45.36811" lon="4.52801">
        <ele>1207.55</ele>
        <time>2013-07-08T11:03:06Z</time>
      </trkpt>
      <trkpt lat="45.36817" lon="4.52791">
        <ele>1207.55</ele>
        <time>2013-07-08T11:03:22Z</time>
      </trkpt>
      <trkpt lat="45.36819" lon="4.52789">
        <ele>1207.55</ele>
        <time>2013-07-08T11:03:24Z</time>
      </trkpt>
      <trkpt lat="45.36824" lon="4.52787">
        <ele>1208.03</ele>
        <time>2013-07-08T11:03:39Z</time>
      </trkpt>
      <trkpt lat="45.36823" lon="4.52787">
        <ele>1207.55</ele>
        <time>2013-07-08T11:04:06Z</time>
      </trkpt>
      <trkpt lat="45.36824" lon="4.52786">
        <ele>1208.03</ele>
        <time>2013-07-08T11:04:11Z</time>
      </trkpt>
      <trkpt lat="45.36822" lon="4.52784">
        <ele>1208.03</ele>
        <time>2013-07-08T11:04:41Z</time>
      </trkpt>
      <trkpt lat="45.36824" lon="4.52784">
        <ele>1207.55</ele>
        <time>2013-07-08T11:05:17Z</time>
      </trkpt>
      <trkpt lat="45.36824" lon="4.52786">
        <ele>1207.55</ele>
        <time>2013-07-08T11:05:44Z</time>
      </trkpt>
    </trkseg>
  </trk>
</gpx>